<?xml version="1.0" encoding="UTF-8" standalone="no" ?>
<gpx xmlns="http://www.topografix.com/GPX/1/1" xmlns:xsi="http://www.w3.org/2001/XMLSchema-instance" xsi:schemaLocation="http://www.topografix.com/GPX/1/1 http://www.topografix.com/GPX/1/1/gpx.xsd" version="1.1" creator="VisuGPX - https://www.visugpx.com">
  <metadata>
    <name>Popoff in the monts</name>
    <desc><![CDATA[Rando exploration dans le Sud des monts du Lyonnais ]]></desc>
  </metadata>
  <trk>
    <name><![CDATA[2011-01-20 55449]]></name>
    <trkseg>
      <trkpt lat="45.74342" lon="4.72164">
        <ele>296.22</ele>
        <time>2011-01-29T12:11:05Z</time>
      </trkpt>
      <trkpt lat="45.74335" lon="4.72034">
        <ele>297.67</ele>
        <time>2011-01-29T12:13:06Z</time>
      </trkpt>
      <trkpt lat="45.74268" lon="4.7199">
        <ele>297.18</ele>
        <time>2011-01-29T12:13:25Z</time>
      </trkpt>
      <trkpt lat="45.74273" lon="4.71849">
        <ele>298.15</ele>
        <time>2011-01-29T12:13:36Z</time>
      </trkpt>
      <trkpt lat="45.74292" lon="4.71713">
        <ele>299.11</ele>
        <time>2011-01-29T12:13:44Z</time>
      </trkpt>
      <trkpt lat="45.74335" lon="4.71581">
        <ele>301.03</ele>
        <time>2011-01-29T12:13:52Z</time>
      </trkpt>
      <trkpt lat="45.74314" lon="4.71478">
        <ele>300.07</ele>
        <time>2011-01-29T12:14:04Z</time>
      </trkpt>
      <trkpt lat="45.7427" lon="4.7136">
        <ele>301.51</ele>
        <time>2011-01-29T12:14:11Z</time>
      </trkpt>
      <trkpt lat="45.74255" lon="4.71224">
        <ele>304.88</ele>
        <time>2011-01-29T12:14:18Z</time>
      </trkpt>
      <trkpt lat="45.74253" lon="4.71079">
        <ele>307.76</ele>
        <time>2011-01-29T12:14:25Z</time>
      </trkpt>
      <trkpt lat="45.74255" lon="4.70952">
        <ele>310.16</ele>
        <time>2011-01-29T12:14:32Z</time>
      </trkpt>
      <trkpt lat="45.74257" lon="4.70814">
        <ele>309.2</ele>
        <time>2011-01-29T12:15:02Z</time>
      </trkpt>
      <trkpt lat="45.74265" lon="4.70688">
        <ele>308.24</ele>
        <time>2011-01-29T12:15:08Z</time>
      </trkpt>
      <trkpt lat="45.74186" lon="4.70688">
        <ele>305.84</ele>
        <time>2011-01-29T12:15:23Z</time>
      </trkpt>
      <trkpt lat="45.74086" lon="4.70725">
        <ele>303.91</ele>
        <time>2011-01-29T12:15:31Z</time>
      </trkpt>
      <trkpt lat="45.73994" lon="4.70754">
        <ele>301.51</ele>
        <time>2011-01-29T12:15:38Z</time>
      </trkpt>
      <trkpt lat="45.73903" lon="4.70745">
        <ele>299.59</ele>
        <time>2011-01-29T12:15:44Z</time>
      </trkpt>
      <trkpt lat="45.73817" lon="4.70683">
        <ele>296.22</ele>
        <time>2011-01-29T12:15:52Z</time>
      </trkpt>
      <trkpt lat="45.7373" lon="4.70641">
        <ele>294.78</ele>
        <time>2011-01-29T12:16:00Z</time>
      </trkpt>
      <trkpt lat="45.7364" lon="4.70628">
        <ele>294.3</ele>
        <time>2011-01-29T12:16:09Z</time>
      </trkpt>
      <trkpt lat="45.73562" lon="4.70614">
        <ele>291.9</ele>
        <time>2011-01-29T12:16:30Z</time>
      </trkpt>
      <trkpt lat="45.7349" lon="4.70651">
        <ele>275.07</ele>
        <time>2011-01-29T12:17:52Z</time>
      </trkpt>
      <trkpt lat="45.7352" lon="4.70708">
        <ele>259.21</ele>
        <time>2011-01-29T12:18:12Z</time>
      </trkpt>
      <trkpt lat="45.73449" lon="4.70727">
        <ele>259.21</ele>
        <time>2011-01-29T12:18:46Z</time>
      </trkpt>
      <trkpt lat="45.73531" lon="4.70788">
        <ele>261.14</ele>
        <time>2011-01-29T12:20:52Z</time>
      </trkpt>
      <trkpt lat="45.73482" lon="4.70893">
        <ele>269.79</ele>
        <time>2011-01-29T12:21:04Z</time>
      </trkpt>
      <trkpt lat="45.73386" lon="4.70898">
        <ele>278.92</ele>
        <time>2011-01-29T12:21:13Z</time>
      </trkpt>
      <trkpt lat="45.73294" lon="4.70889">
        <ele>282.28</ele>
        <time>2011-01-29T12:21:22Z</time>
      </trkpt>
      <trkpt lat="45.73244" lon="4.7077">
        <ele>284.21</ele>
        <time>2011-01-29T12:21:35Z</time>
      </trkpt>
      <trkpt lat="45.73204" lon="4.70642">
        <ele>286.13</ele>
        <time>2011-01-29T12:21:41Z</time>
      </trkpt>
      <trkpt lat="45.73154" lon="4.70514">
        <ele>291.42</ele>
        <time>2011-01-29T12:21:47Z</time>
      </trkpt>
      <trkpt lat="45.73083" lon="4.70416">
        <ele>296.22</ele>
        <time>2011-01-29T12:21:54Z</time>
      </trkpt>
      <trkpt lat="45.73075" lon="4.70311">
        <ele>302.47</ele>
        <time>2011-01-29T12:22:08Z</time>
      </trkpt>
      <trkpt lat="45.73123" lon="4.70191">
        <ele>309.68</ele>
        <time>2011-01-29T12:22:18Z</time>
      </trkpt>
      <trkpt lat="45.73096" lon="4.70084">
        <ele>314.49</ele>
        <time>2011-01-29T12:22:29Z</time>
      </trkpt>
      <trkpt lat="45.73015" lon="4.69993">
        <ele>321.22</ele>
        <time>2011-01-29T12:22:37Z</time>
      </trkpt>
      <trkpt lat="45.72922" lon="4.69934">
        <ele>324.58</ele>
        <time>2011-01-29T12:22:43Z</time>
      </trkpt>
      <trkpt lat="45.72833" lon="4.69865">
        <ele>326.99</ele>
        <time>2011-01-29T12:22:49Z</time>
      </trkpt>
      <trkpt lat="45.72768" lon="4.69777">
        <ele>330.35</ele>
        <time>2011-01-29T12:22:56Z</time>
      </trkpt>
      <trkpt lat="45.72834" lon="4.69695">
        <ele>331.31</ele>
        <time>2011-01-29T12:23:08Z</time>
      </trkpt>
      <trkpt lat="45.72935" lon="4.69661">
        <ele>324.58</ele>
        <time>2011-01-29T12:23:15Z</time>
      </trkpt>
      <trkpt lat="45.73014" lon="4.69611">
        <ele>315.93</ele>
        <time>2011-01-29T12:23:25Z</time>
      </trkpt>
      <trkpt lat="45.73041" lon="4.69487">
        <ele>304.39</ele>
        <time>2011-01-29T12:23:39Z</time>
      </trkpt>
      <trkpt lat="45.73048" lon="4.69378">
        <ele>290.46</ele>
        <time>2011-01-29T12:23:57Z</time>
      </trkpt>
      <trkpt lat="45.72942" lon="4.69356">
        <ele>297.67</ele>
        <time>2011-01-29T12:24:05Z</time>
      </trkpt>
      <trkpt lat="45.72852" lon="4.69326">
        <ele>303.91</ele>
        <time>2011-01-29T12:24:11Z</time>
      </trkpt>
      <trkpt lat="45.72757" lon="4.69315">
        <ele>308.24</ele>
        <time>2011-01-29T12:24:17Z</time>
      </trkpt>
      <trkpt lat="45.72668" lon="4.69278">
        <ele>315.93</ele>
        <time>2011-01-29T12:24:23Z</time>
      </trkpt>
      <trkpt lat="45.72575" lon="4.69288">
        <ele>321.7</ele>
        <time>2011-01-29T12:24:28Z</time>
      </trkpt>
      <trkpt lat="45.72483" lon="4.69296">
        <ele>328.43</ele>
        <time>2011-01-29T12:24:34Z</time>
      </trkpt>
      <trkpt lat="45.72399" lon="4.69342">
        <ele>335.16</ele>
        <time>2011-01-29T12:24:40Z</time>
      </trkpt>
      <trkpt lat="45.72355" lon="4.69315">
        <ele>338.04</ele>
        <time>2011-01-29T12:24:51Z</time>
      </trkpt>
      <trkpt lat="45.72367" lon="4.69185">
        <ele>338.52</ele>
        <time>2011-01-29T12:24:58Z</time>
      </trkpt>
      <trkpt lat="45.72319" lon="4.69064">
        <ele>342.37</ele>
        <time>2011-01-29T12:25:21Z</time>
      </trkpt>
      <trkpt lat="45.72269" lon="4.68961">
        <ele>345.73</ele>
        <time>2011-01-29T12:25:27Z</time>
      </trkpt>
      <trkpt lat="45.72207" lon="4.68847">
        <ele>349.58</ele>
        <time>2011-01-29T12:25:34Z</time>
      </trkpt>
      <trkpt lat="45.72137" lon="4.68758">
        <ele>347.65</ele>
        <time>2011-01-29T12:25:45Z</time>
      </trkpt>
      <trkpt lat="45.72057" lon="4.68694">
        <ele>346.69</ele>
        <time>2011-01-29T12:25:58Z</time>
      </trkpt>
      <trkpt lat="45.71968" lon="4.6866">
        <ele>344.77</ele>
        <time>2011-01-29T12:26:05Z</time>
      </trkpt>
      <trkpt lat="45.71869" lon="4.68656">
        <ele>341.41</ele>
        <time>2011-01-29T12:26:13Z</time>
      </trkpt>
      <trkpt lat="45.71794" lon="4.68592">
        <ele>331.79</ele>
        <time>2011-01-29T12:26:42Z</time>
      </trkpt>
      <trkpt lat="45.71733" lon="4.68467">
        <ele>330.83</ele>
        <time>2011-01-29T12:26:49Z</time>
      </trkpt>
      <trkpt lat="45.71655" lon="4.68367">
        <ele>331.31</ele>
        <time>2011-01-29T12:26:55Z</time>
      </trkpt>
      <trkpt lat="45.71583" lon="4.68278">
        <ele>335.64</ele>
        <time>2011-01-29T12:27:01Z</time>
      </trkpt>
      <trkpt lat="45.71514" lon="4.68192">
        <ele>340.44</ele>
        <time>2011-01-29T12:27:08Z</time>
      </trkpt>
      <trkpt lat="45.71453" lon="4.68088">
        <ele>339.96</ele>
        <time>2011-01-29T12:27:16Z</time>
      </trkpt>
      <trkpt lat="45.71366" lon="4.68049">
        <ele>336.6</ele>
        <time>2011-01-29T12:27:24Z</time>
      </trkpt>
      <trkpt lat="45.71267" lon="4.6803">
        <ele>338.52</ele>
        <time>2011-01-29T12:27:32Z</time>
      </trkpt>
      <trkpt lat="45.71175" lon="4.68056">
        <ele>337.56</ele>
        <time>2011-01-29T12:27:40Z</time>
      </trkpt>
      <trkpt lat="45.71082" lon="4.68089">
        <ele>334.68</ele>
        <time>2011-01-29T12:27:48Z</time>
      </trkpt>
      <trkpt lat="45.70988" lon="4.68132">
        <ele>333.23</ele>
        <time>2011-01-29T12:27:55Z</time>
      </trkpt>
      <trkpt lat="45.70897" lon="4.68154">
        <ele>326.99</ele>
        <time>2011-01-29T12:28:10Z</time>
      </trkpt>
      <trkpt lat="45.70816" lon="4.68187">
        <ele>317.37</ele>
        <time>2011-01-29T12:28:29Z</time>
      </trkpt>
      <trkpt lat="45.70726" lon="4.68195">
        <ele>324.58</ele>
        <time>2011-01-29T12:29:03Z</time>
      </trkpt>
      <trkpt lat="45.70631" lon="4.68185">
        <ele>327.95</ele>
        <time>2011-01-29T12:29:11Z</time>
      </trkpt>
      <trkpt lat="45.70533" lon="4.68166">
        <ele>334.2</ele>
        <time>2011-01-29T12:29:17Z</time>
      </trkpt>
      <trkpt lat="45.70463" lon="4.68086">
        <ele>340.92</ele>
        <time>2011-01-29T12:29:26Z</time>
      </trkpt>
      <trkpt lat="45.70415" lon="4.67977">
        <ele>350.06</ele>
        <time>2011-01-29T12:29:33Z</time>
      </trkpt>
      <trkpt lat="45.70364" lon="4.67866">
        <ele>357.27</ele>
        <time>2011-01-29T12:29:44Z</time>
      </trkpt>
      <trkpt lat="45.70454" lon="4.67866">
        <ele>353.42</ele>
        <time>2011-01-29T12:29:58Z</time>
      </trkpt>
      <trkpt lat="45.70484" lon="4.67774">
        <ele>349.58</ele>
        <time>2011-01-29T12:30:08Z</time>
      </trkpt>
      <trkpt lat="45.70522" lon="4.67703">
        <ele>350.06</ele>
        <time>2011-01-29T12:30:21Z</time>
      </trkpt>
      <trkpt lat="45.70605" lon="4.6776">
        <ele>361.59</ele>
        <time>2011-01-29T12:30:32Z</time>
      </trkpt>
      <trkpt lat="45.70679" lon="4.67837">
        <ele>356.79</ele>
        <time>2011-01-29T12:31:12Z</time>
      </trkpt>
      <trkpt lat="45.70775" lon="4.67862">
        <ele>356.79</ele>
        <time>2011-01-29T12:31:20Z</time>
      </trkpt>
      <trkpt lat="45.70872" lon="4.67865">
        <ele>352.46</ele>
        <time>2011-01-29T12:31:28Z</time>
      </trkpt>
      <trkpt lat="45.70967" lon="4.67888">
        <ele>351.02</ele>
        <time>2011-01-29T12:31:36Z</time>
      </trkpt>
      <trkpt lat="45.71004" lon="4.67803">
        <ele>358.23</ele>
        <time>2011-01-29T12:31:46Z</time>
      </trkpt>
      <trkpt lat="45.70985" lon="4.67672">
        <ele>364.48</ele>
        <time>2011-01-29T12:31:54Z</time>
      </trkpt>
      <trkpt lat="45.70958" lon="4.67535">
        <ele>374.57</ele>
        <time>2011-01-29T12:32:01Z</time>
      </trkpt>
      <trkpt lat="45.70962" lon="4.67404">
        <ele>376.97</ele>
        <time>2011-01-29T12:32:10Z</time>
      </trkpt>
      <trkpt lat="45.70921" lon="4.67292">
        <ele>376.01</ele>
        <time>2011-01-29T12:32:19Z</time>
      </trkpt>
      <trkpt lat="45.70903" lon="4.6717">
        <ele>377.45</ele>
        <time>2011-01-29T12:32:33Z</time>
      </trkpt>
      <trkpt lat="45.70901" lon="4.67119">
        <ele>380.34</ele>
        <time>2011-01-29T12:32:51Z</time>
      </trkpt>
      <trkpt lat="45.70859" lon="4.67167">
        <ele>381.3</ele>
        <time>2011-01-29T12:33:08Z</time>
      </trkpt>
      <trkpt lat="45.70833" lon="4.67039">
        <ele>389.47</ele>
        <time>2011-01-29T12:33:16Z</time>
      </trkpt>
      <trkpt lat="45.70808" lon="4.66905">
        <ele>399.08</ele>
        <time>2011-01-29T12:33:25Z</time>
      </trkpt>
      <trkpt lat="45.70817" lon="4.66784">
        <ele>407.26</ele>
        <time>2011-01-29T12:33:39Z</time>
      </trkpt>
      <trkpt lat="45.70899" lon="4.66725">
        <ele>410.14</ele>
        <time>2011-01-29T12:33:47Z</time>
      </trkpt>
      <trkpt lat="45.70987" lon="4.66663">
        <ele>414.95</ele>
        <time>2011-01-29T12:33:54Z</time>
      </trkpt>
      <trkpt lat="45.71086" lon="4.66647">
        <ele>421.68</ele>
        <time>2011-01-29T12:34:04Z</time>
      </trkpt>
      <trkpt lat="45.71182" lon="4.66627">
        <ele>425.52</ele>
        <time>2011-01-29T12:34:12Z</time>
      </trkpt>
      <trkpt lat="45.71269" lon="4.66578">
        <ele>427.92</ele>
        <time>2011-01-29T12:34:22Z</time>
      </trkpt>
      <trkpt lat="45.71364" lon="4.66558">
        <ele>426.96</ele>
        <time>2011-01-29T12:34:37Z</time>
      </trkpt>
      <trkpt lat="45.71449" lon="4.66507">
        <ele>429.37</ele>
        <time>2011-01-29T12:34:46Z</time>
      </trkpt>
      <trkpt lat="45.71533" lon="4.66444">
        <ele>435.61</ele>
        <time>2011-01-29T12:34:53Z</time>
      </trkpt>
      <trkpt lat="45.71596" lon="4.66353">
        <ele>443.31</ele>
        <time>2011-01-29T12:35:00Z</time>
      </trkpt>
      <trkpt lat="45.71646" lon="4.66245">
        <ele>448.11</ele>
        <time>2011-01-29T12:35:07Z</time>
      </trkpt>
      <trkpt lat="45.71613" lon="4.66131">
        <ele>453.88</ele>
        <time>2011-01-29T12:35:24Z</time>
      </trkpt>
      <trkpt lat="45.71544" lon="4.66036">
        <ele>467.34</ele>
        <time>2011-01-29T12:35:31Z</time>
      </trkpt>
      <trkpt lat="45.71467" lon="4.65965">
        <ele>480.32</ele>
        <time>2011-01-29T12:35:38Z</time>
      </trkpt>
      <trkpt lat="45.71378" lon="4.65898">
        <ele>494.26</ele>
        <time>2011-01-29T12:35:46Z</time>
      </trkpt>
      <trkpt lat="45.71302" lon="4.65811">
        <ele>509.64</ele>
        <time>2011-01-29T12:35:53Z</time>
      </trkpt>
      <trkpt lat="45.71229" lon="4.65747">
        <ele>524.54</ele>
        <time>2011-01-29T12:36:02Z</time>
      </trkpt>
      <trkpt lat="45.71179" lon="4.65633">
        <ele>531.75</ele>
        <time>2011-01-29T12:36:10Z</time>
      </trkpt>
      <trkpt lat="45.71114" lon="4.6552">
        <ele>533.19</ele>
        <time>2011-01-29T12:36:17Z</time>
      </trkpt>
      <trkpt lat="45.71053" lon="4.65422">
        <ele>544.24</ele>
        <time>2011-01-29T12:36:26Z</time>
      </trkpt>
      <trkpt lat="45.70978" lon="4.65469">
        <ele>527.42</ele>
        <time>2011-01-29T12:36:53Z</time>
      </trkpt>
      <trkpt lat="45.70892" lon="4.65519">
        <ele>511.08</ele>
        <time>2011-01-29T12:37:05Z</time>
      </trkpt>
      <trkpt lat="45.70805" lon="4.65558">
        <ele>493.77</ele>
        <time>2011-01-29T12:37:19Z</time>
      </trkpt>
      <trkpt lat="45.7075" lon="4.6567">
        <ele>477.43</ele>
        <time>2011-01-29T12:37:33Z</time>
      </trkpt>
      <trkpt lat="45.70676" lon="4.65654">
        <ele>467.34</ele>
        <time>2011-01-29T12:37:48Z</time>
      </trkpt>
      <trkpt lat="45.70697" lon="4.65527">
        <ele>472.63</ele>
        <time>2011-01-29T12:38:00Z</time>
      </trkpt>
      <trkpt lat="45.70624" lon="4.65447">
        <ele>484.16</ele>
        <time>2011-01-29T12:39:31Z</time>
      </trkpt>
      <trkpt lat="45.70561" lon="4.65355">
        <ele>501.46</ele>
        <time>2011-01-29T12:39:51Z</time>
      </trkpt>
      <trkpt lat="45.70486" lon="4.65265">
        <ele>513.96</ele>
        <time>2011-01-29T12:40:08Z</time>
      </trkpt>
      <trkpt lat="45.70441" lon="4.65151">
        <ele>524.54</ele>
        <time>2011-01-29T12:40:20Z</time>
      </trkpt>
      <trkpt lat="45.70442" lon="4.65019">
        <ele>527.42</ele>
        <time>2011-01-29T12:40:31Z</time>
      </trkpt>
      <trkpt lat="45.70412" lon="4.64894">
        <ele>530.79</ele>
        <time>2011-01-29T12:40:46Z</time>
      </trkpt>
      <trkpt lat="45.7037" lon="4.64773">
        <ele>535.11</ele>
        <time>2011-01-29T12:41:03Z</time>
      </trkpt>
      <trkpt lat="45.70291" lon="4.64707">
        <ele>553.38</ele>
        <time>2011-01-29T12:41:19Z</time>
      </trkpt>
      <trkpt lat="45.70198" lon="4.64755">
        <ele>571.16</ele>
        <time>2011-01-29T12:41:32Z</time>
      </trkpt>
      <trkpt lat="45.70096" lon="4.64802">
        <ele>575.97</ele>
        <time>2011-01-29T12:41:44Z</time>
      </trkpt>
      <trkpt lat="45.70017" lon="4.64878">
        <ele>566.35</ele>
        <time>2011-01-29T12:41:56Z</time>
      </trkpt>
      <trkpt lat="45.69943" lon="4.64942">
        <ele>558.18</ele>
        <time>2011-01-29T12:42:13Z</time>
      </trkpt>
      <trkpt lat="45.6985" lon="4.64959">
        <ele>541.36</ele>
        <time>2011-01-29T12:42:50Z</time>
      </trkpt>
      <trkpt lat="45.69777" lon="4.65043">
        <ele>530.79</ele>
        <time>2011-01-29T12:43:03Z</time>
      </trkpt>
      <trkpt lat="45.69728" lon="4.65159">
        <ele>522.61</ele>
        <time>2011-01-29T12:43:17Z</time>
      </trkpt>
      <trkpt lat="45.69673" lon="4.65264">
        <ele>506.27</ele>
        <time>2011-01-29T12:43:31Z</time>
      </trkpt>
      <trkpt lat="45.69598" lon="4.65354">
        <ele>488.97</ele>
        <time>2011-01-29T12:43:53Z</time>
      </trkpt>
      <trkpt lat="45.69528" lon="4.65448">
        <ele>471.66</ele>
        <time>2011-01-29T12:44:09Z</time>
      </trkpt>
      <trkpt lat="45.69478" lon="4.65418">
        <ele>470.22</ele>
        <time>2011-01-29T12:45:13Z</time>
      </trkpt>
      <trkpt lat="45.69457" lon="4.65322">
        <ele>476.95</ele>
        <time>2011-01-29T12:45:28Z</time>
      </trkpt>
      <trkpt lat="45.6937" lon="4.65339">
        <ele>466.38</ele>
        <time>2011-01-29T12:45:39Z</time>
      </trkpt>
      <trkpt lat="45.69327" lon="4.65425">
        <ele>455.32</ele>
        <time>2011-01-29T12:45:51Z</time>
      </trkpt>
      <trkpt lat="45.69229" lon="4.65436">
        <ele>444.75</ele>
        <time>2011-01-29T12:45:58Z</time>
      </trkpt>
      <trkpt lat="45.69142" lon="4.65472">
        <ele>434.17</ele>
        <time>2011-01-29T12:46:12Z</time>
      </trkpt>
      <trkpt lat="45.69049" lon="4.65503">
        <ele>424.08</ele>
        <time>2011-01-29T12:46:21Z</time>
      </trkpt>
      <trkpt lat="45.68956" lon="4.65508">
        <ele>415.43</ele>
        <time>2011-01-29T12:46:32Z</time>
      </trkpt>
      <trkpt lat="45.68857" lon="4.65516">
        <ele>411.58</ele>
        <time>2011-01-29T12:46:38Z</time>
      </trkpt>
      <trkpt lat="45.68766" lon="4.65516">
        <ele>406.77</ele>
        <time>2011-01-29T12:46:50Z</time>
      </trkpt>
      <trkpt lat="45.6868" lon="4.65553">
        <ele>401.01</ele>
        <time>2011-01-29T12:47:00Z</time>
      </trkpt>
      <trkpt lat="45.68641" lon="4.65644">
        <ele>398.12</ele>
        <time>2011-01-29T12:47:20Z</time>
      </trkpt>
      <trkpt lat="45.68692" lon="4.65715">
        <ele>400.53</ele>
        <time>2011-01-29T12:47:34Z</time>
      </trkpt>
      <trkpt lat="45.68763" lon="4.65674">
        <ele>404.37</ele>
        <time>2011-01-29T12:47:52Z</time>
      </trkpt>
      <trkpt lat="45.68691" lon="4.65668">
        <ele>401.49</ele>
        <time>2011-01-29T12:48:06Z</time>
      </trkpt>
      <trkpt lat="45.68639" lon="4.65602">
        <ele>398.12</ele>
        <time>2011-01-29T12:48:30Z</time>
      </trkpt>
      <trkpt lat="45.68585" lon="4.65653">
        <ele>393.32</ele>
        <time>2011-01-29T12:48:43Z</time>
      </trkpt>
      <trkpt lat="45.68567" lon="4.65766">
        <ele>391.87</ele>
        <time>2011-01-29T12:48:55Z</time>
      </trkpt>
      <trkpt lat="45.68548" lon="4.65897">
        <ele>388.99</ele>
        <time>2011-01-29T12:49:05Z</time>
      </trkpt>
      <trkpt lat="45.68552" lon="4.65998">
        <ele>382.74</ele>
        <time>2011-01-29T12:49:16Z</time>
      </trkpt>
      <trkpt lat="45.68505" lon="4.66119">
        <ele>376.49</ele>
        <time>2011-01-29T12:49:23Z</time>
      </trkpt>
      <trkpt lat="45.68464" lon="4.66251">
        <ele>364.96</ele>
        <time>2011-01-29T12:49:31Z</time>
      </trkpt>
      <trkpt lat="45.68507" lon="4.66344">
        <ele>357.27</ele>
        <time>2011-01-29T12:49:43Z</time>
      </trkpt>
      <trkpt lat="45.68602" lon="4.66388">
        <ele>352.94</ele>
        <time>2011-01-29T12:49:50Z</time>
      </trkpt>
      <trkpt lat="45.68697" lon="4.66436">
        <ele>351.02</ele>
        <time>2011-01-29T12:49:58Z</time>
      </trkpt>
      <trkpt lat="45.68776" lon="4.66491">
        <ele>352.94</ele>
        <time>2011-01-29T12:50:07Z</time>
      </trkpt>
      <trkpt lat="45.6886" lon="4.6657">
        <ele>358.71</ele>
        <time>2011-01-29T12:50:16Z</time>
      </trkpt>
      <trkpt lat="45.68939" lon="4.66628">
        <ele>363.04</ele>
        <time>2011-01-29T12:50:28Z</time>
      </trkpt>
      <trkpt lat="45.68935" lon="4.66722">
        <ele>356.31</ele>
        <time>2011-01-29T12:50:40Z</time>
      </trkpt>
      <trkpt lat="45.6885" lon="4.66803">
        <ele>348.62</ele>
        <time>2011-01-29T12:50:47Z</time>
      </trkpt>
      <trkpt lat="45.68775" lon="4.66879">
        <ele>340.44</ele>
        <time>2011-01-29T12:50:54Z</time>
      </trkpt>
      <trkpt lat="45.68709" lon="4.6698">
        <ele>333.23</ele>
        <time>2011-01-29T12:51:00Z</time>
      </trkpt>
      <trkpt lat="45.68646" lon="4.67076">
        <ele>328.43</ele>
        <time>2011-01-29T12:51:07Z</time>
      </trkpt>
      <trkpt lat="45.68594" lon="4.67194">
        <ele>322.66</ele>
        <time>2011-01-29T12:51:25Z</time>
      </trkpt>
      <trkpt lat="45.68531" lon="4.67308">
        <ele>314.97</ele>
        <time>2011-01-29T12:51:34Z</time>
      </trkpt>
      <trkpt lat="45.68474" lon="4.67417">
        <ele>304.88</ele>
        <time>2011-01-29T12:51:42Z</time>
      </trkpt>
      <trkpt lat="45.68487" lon="4.67538">
        <ele>296.7</ele>
        <time>2011-01-29T12:51:55Z</time>
      </trkpt>
      <trkpt lat="45.68484" lon="4.67656">
        <ele>300.55</ele>
        <time>2011-01-29T12:52:08Z</time>
      </trkpt>
      <trkpt lat="45.68409" lon="4.67721">
        <ele>308.24</ele>
        <time>2011-01-29T12:52:17Z</time>
      </trkpt>
      <trkpt lat="45.68303" lon="4.67755">
        <ele>314.01</ele>
        <time>2011-01-29T12:52:23Z</time>
      </trkpt>
      <trkpt lat="45.68224" lon="4.67751">
        <ele>321.7</ele>
        <time>2011-01-29T12:52:33Z</time>
      </trkpt>
      <trkpt lat="45.68155" lon="4.67735">
        <ele>330.83</ele>
        <time>2011-01-29T12:52:45Z</time>
      </trkpt>
      <trkpt lat="45.68067" lon="4.67706">
        <ele>340.92</ele>
        <time>2011-01-29T12:52:55Z</time>
      </trkpt>
      <trkpt lat="45.68025" lon="4.67805">
        <ele>348.13</ele>
        <time>2011-01-29T12:53:06Z</time>
      </trkpt>
      <trkpt lat="45.67935" lon="4.6784">
        <ele>354.86</ele>
        <time>2011-01-29T12:53:17Z</time>
      </trkpt>
      <trkpt lat="45.67848" lon="4.67878">
        <ele>361.59</ele>
        <time>2011-01-29T12:53:29Z</time>
      </trkpt>
      <trkpt lat="45.67761" lon="4.67915">
        <ele>368.32</ele>
        <time>2011-01-29T12:54:08Z</time>
      </trkpt>
      <trkpt lat="45.67674" lon="4.6794">
        <ele>376.01</ele>
        <time>2011-01-29T12:54:16Z</time>
      </trkpt>
      <trkpt lat="45.6758" lon="4.67954">
        <ele>383.7</ele>
        <time>2011-01-29T12:54:25Z</time>
      </trkpt>
      <trkpt lat="45.67499" lon="4.67912">
        <ele>391.87</ele>
        <time>2011-01-29T12:54:37Z</time>
      </trkpt>
      <trkpt lat="45.67431" lon="4.6781">
        <ele>389.47</ele>
        <time>2011-01-29T12:54:46Z</time>
      </trkpt>
      <trkpt lat="45.67358" lon="4.6786">
        <ele>395.24</ele>
        <time>2011-01-29T12:54:57Z</time>
      </trkpt>
      <trkpt lat="45.67304" lon="4.67969">
        <ele>396.68</ele>
        <time>2011-01-29T12:55:05Z</time>
      </trkpt>
      <trkpt lat="45.67235" lon="4.6805">
        <ele>391.39</ele>
        <time>2011-01-29T12:55:18Z</time>
      </trkpt>
      <trkpt lat="45.67194" lon="4.68011">
        <ele>393.8</ele>
        <time>2011-01-29T12:55:30Z</time>
      </trkpt>
      <trkpt lat="45.67162" lon="4.67881">
        <ele>398.12</ele>
        <time>2011-01-29T12:55:35Z</time>
      </trkpt>
      <trkpt lat="45.67148" lon="4.67743">
        <ele>404.85</ele>
        <time>2011-01-29T12:55:41Z</time>
      </trkpt>
      <trkpt lat="45.67121" lon="4.67616">
        <ele>409.66</ele>
        <time>2011-01-29T12:55:49Z</time>
      </trkpt>
      <trkpt lat="45.67107" lon="4.67487">
        <ele>409.18</ele>
        <time>2011-01-29T12:55:57Z</time>
      </trkpt>
      <trkpt lat="45.67059" lon="4.67378">
        <ele>414.47</ele>
        <time>2011-01-29T12:56:04Z</time>
      </trkpt>
      <trkpt lat="45.67013" lon="4.67254">
        <ele>415.91</ele>
        <time>2011-01-29T12:56:12Z</time>
      </trkpt>
      <trkpt lat="45.66967" lon="4.67135">
        <ele>414.47</ele>
        <time>2011-01-29T12:56:21Z</time>
      </trkpt>
      <trkpt lat="45.66911" lon="4.67041">
        <ele>420.23</ele>
        <time>2011-01-29T12:56:35Z</time>
      </trkpt>
      <trkpt lat="45.66857" lon="4.6693">
        <ele>424.08</ele>
        <time>2011-01-29T12:56:43Z</time>
      </trkpt>
      <trkpt lat="45.66797" lon="4.6683">
        <ele>428.4</ele>
        <time>2011-01-29T12:56:57Z</time>
      </trkpt>
      <trkpt lat="45.66731" lon="4.66744">
        <ele>438.98</ele>
        <time>2011-01-29T12:57:12Z</time>
      </trkpt>
      <trkpt lat="45.66685" lon="4.66855">
        <ele>439.46</ele>
        <time>2011-01-29T12:57:28Z</time>
      </trkpt>
      <trkpt lat="45.66639" lon="4.66745">
        <ele>444.27</ele>
        <time>2011-01-29T12:57:41Z</time>
      </trkpt>
      <trkpt lat="45.66581" lon="4.66647">
        <ele>449.07</ele>
        <time>2011-01-29T12:57:50Z</time>
      </trkpt>
      <trkpt lat="45.66499" lon="4.66584">
        <ele>451.96</ele>
        <time>2011-01-29T12:57:59Z</time>
      </trkpt>
      <trkpt lat="45.66406" lon="4.66587">
        <ele>450.52</ele>
        <time>2011-01-29T12:58:09Z</time>
      </trkpt>
      <trkpt lat="45.6632" lon="4.66609">
        <ele>451.96</ele>
        <time>2011-01-29T12:58:20Z</time>
      </trkpt>
      <trkpt lat="45.66278" lon="4.66555">
        <ele>456.28</ele>
        <time>2011-01-29T12:58:43Z</time>
      </trkpt>
      <trkpt lat="45.663" lon="4.66426">
        <ele>462.53</ele>
        <time>2011-01-29T12:58:54Z</time>
      </trkpt>
      <trkpt lat="45.66219" lon="4.66361">
        <ele>471.18</ele>
        <time>2011-01-29T12:59:05Z</time>
      </trkpt>
      <trkpt lat="45.66134" lon="4.66288">
        <ele>486.08</ele>
        <time>2011-01-29T12:59:17Z</time>
      </trkpt>
      <trkpt lat="45.66069" lon="4.66215">
        <ele>497.62</ele>
        <time>2011-01-29T12:59:33Z</time>
      </trkpt>
      <trkpt lat="45.66089" lon="4.66099">
        <ele>506.75</ele>
        <time>2011-01-29T12:59:46Z</time>
      </trkpt>
      <trkpt lat="45.66087" lon="4.65957">
        <ele>514.92</ele>
        <time>2011-01-29T12:59:54Z</time>
      </trkpt>
      <trkpt lat="45.66045" lon="4.6583">
        <ele>515.88</ele>
        <time>2011-01-29T13:00:02Z</time>
      </trkpt>
      <trkpt lat="45.65974" lon="4.65731">
        <ele>514.44</ele>
        <time>2011-01-29T13:00:09Z</time>
      </trkpt>
      <trkpt lat="45.65902" lon="4.65653">
        <ele>517.81</ele>
        <time>2011-01-29T13:00:17Z</time>
      </trkpt>
      <trkpt lat="45.65853" lon="4.65554">
        <ele>527.9</ele>
        <time>2011-01-29T13:00:28Z</time>
      </trkpt>
      <trkpt lat="45.65786" lon="4.65449">
        <ele>537.99</ele>
        <time>2011-01-29T13:00:38Z</time>
      </trkpt>
      <trkpt lat="45.65717" lon="4.65351">
        <ele>534.15</ele>
        <time>2011-01-29T13:00:47Z</time>
      </trkpt>
      <trkpt lat="45.65639" lon="4.65281">
        <ele>534.15</ele>
        <time>2011-01-29T13:00:55Z</time>
      </trkpt>
      <trkpt lat="45.65558" lon="4.6522">
        <ele>540.88</ele>
        <time>2011-01-29T13:01:03Z</time>
      </trkpt>
      <trkpt lat="45.65612" lon="4.65126">
        <ele>535.59</ele>
        <time>2011-01-29T13:01:14Z</time>
      </trkpt>
      <trkpt lat="45.65682" lon="4.65032">
        <ele>529.34</ele>
        <time>2011-01-29T13:01:27Z</time>
      </trkpt>
      <trkpt lat="45.65765" lon="4.64961">
        <ele>525.98</ele>
        <time>2011-01-29T13:01:37Z</time>
      </trkpt>
      <trkpt lat="45.65838" lon="4.64879">
        <ele>515.88</ele>
        <time>2011-01-29T13:01:52Z</time>
      </trkpt>
      <trkpt lat="45.65908" lon="4.64769">
        <ele>506.75</ele>
        <time>2011-01-29T13:02:04Z</time>
      </trkpt>
      <trkpt lat="45.65919" lon="4.64645">
        <ele>504.35</ele>
        <time>2011-01-29T13:02:13Z</time>
      </trkpt>
      <trkpt lat="45.65915" lon="4.64511">
        <ele>487.53</ele>
        <time>2011-01-29T13:02:26Z</time>
      </trkpt>
      <trkpt lat="45.65964" lon="4.64407">
        <ele>472.63</ele>
        <time>2011-01-29T13:02:39Z</time>
      </trkpt>
      <trkpt lat="45.65968" lon="4.64285">
        <ele>459.17</ele>
        <time>2011-01-29T13:02:52Z</time>
      </trkpt>
      <trkpt lat="45.65927" lon="4.64177">
        <ele>441.86</ele>
        <time>2011-01-29T13:03:09Z</time>
      </trkpt>
      <trkpt lat="45.66006" lon="4.64116">
        <ele>422.16</ele>
        <time>2011-01-29T13:03:24Z</time>
      </trkpt>
      <trkpt lat="45.65988" lon="4.63997">
        <ele>404.37</ele>
        <time>2011-01-29T13:03:40Z</time>
      </trkpt>
      <trkpt lat="45.65954" lon="4.63919">
        <ele>402.45</ele>
        <time>2011-01-29T13:14:23Z</time>
      </trkpt>
      <trkpt lat="45.65871" lon="4.63941">
        <ele>416.39</ele>
        <time>2011-01-29T13:14:38Z</time>
      </trkpt>
      <trkpt lat="45.65768" lon="4.63944">
        <ele>437.06</ele>
        <time>2011-01-29T13:14:53Z</time>
      </trkpt>
      <trkpt lat="45.65696" lon="4.64033">
        <ele>458.69</ele>
        <time>2011-01-29T13:15:10Z</time>
      </trkpt>
      <trkpt lat="45.65599" lon="4.641">
        <ele>483.2</ele>
        <time>2011-01-29T13:15:28Z</time>
      </trkpt>
      <trkpt lat="45.65563" lon="4.64131">
        <ele>489.45</ele>
        <time>2011-01-29T13:16:32Z</time>
      </trkpt>
      <trkpt lat="45.65677" lon="4.64046">
        <ele>460.13</ele>
        <time>2011-01-29T13:17:02Z</time>
      </trkpt>
      <trkpt lat="45.6577" lon="4.63934">
        <ele>432.73</ele>
        <time>2011-01-29T13:17:41Z</time>
      </trkpt>
      <trkpt lat="45.6574" lon="4.6398">
        <ele>444.27</ele>
        <time>2011-01-29T13:18:52Z</time>
      </trkpt>
      <trkpt lat="45.65666" lon="4.64053">
        <ele>464.93</ele>
        <time>2011-01-29T13:19:09Z</time>
      </trkpt>
      <trkpt lat="45.65577" lon="4.64117">
        <ele>487.05</ele>
        <time>2011-01-29T13:19:28Z</time>
      </trkpt>
      <trkpt lat="45.6551" lon="4.6421">
        <ele>497.14</ele>
        <time>2011-01-29T13:19:41Z</time>
      </trkpt>
      <trkpt lat="45.65437" lon="4.64284">
        <ele>510.12</ele>
        <time>2011-01-29T13:19:55Z</time>
      </trkpt>
      <trkpt lat="45.65345" lon="4.64278">
        <ele>525.98</ele>
        <time>2011-01-29T13:20:03Z</time>
      </trkpt>
      <trkpt lat="45.65258" lon="4.64325">
        <ele>542.8</ele>
        <time>2011-01-29T13:20:14Z</time>
      </trkpt>
      <trkpt lat="45.65265" lon="4.64223">
        <ele>539.92</ele>
        <time>2011-01-29T13:20:40Z</time>
      </trkpt>
      <trkpt lat="45.65231" lon="4.64099">
        <ele>535.59</ele>
        <time>2011-01-29T13:20:47Z</time>
      </trkpt>
      <trkpt lat="45.65194" lon="4.63971">
        <ele>529.82</ele>
        <time>2011-01-29T13:20:54Z</time>
      </trkpt>
      <trkpt lat="45.65223" lon="4.63879">
        <ele>525.02</ele>
        <time>2011-01-29T13:21:05Z</time>
      </trkpt>
      <trkpt lat="45.65314" lon="4.63822">
        <ele>517.81</ele>
        <time>2011-01-29T13:21:16Z</time>
      </trkpt>
      <trkpt lat="45.65406" lon="4.63747">
        <ele>511.56</ele>
        <time>2011-01-29T13:21:26Z</time>
      </trkpt>
      <trkpt lat="45.65482" lon="4.63658">
        <ele>505.79</ele>
        <time>2011-01-29T13:21:36Z</time>
      </trkpt>
      <trkpt lat="45.65449" lon="4.63569">
        <ele>508.67</ele>
        <time>2011-01-29T13:22:02Z</time>
      </trkpt>
      <trkpt lat="45.65482" lon="4.63581">
        <ele>502.91</ele>
        <time>2011-01-29T13:22:34Z</time>
      </trkpt>
      <trkpt lat="45.65418" lon="4.63487">
        <ele>497.62</ele>
        <time>2011-01-29T13:22:42Z</time>
      </trkpt>
      <trkpt lat="45.65377" lon="4.63388">
        <ele>492.81</ele>
        <time>2011-01-29T13:22:52Z</time>
      </trkpt>
      <trkpt lat="45.65412" lon="4.63328">
        <ele>489.45</ele>
        <time>2011-01-29T13:23:09Z</time>
      </trkpt>
      <trkpt lat="45.65445" lon="4.63289">
        <ele>497.62</ele>
        <time>2011-01-29T13:23:42Z</time>
      </trkpt>
      <trkpt lat="45.65451" lon="4.63322">
        <ele>487.05</ele>
        <time>2011-01-29T13:24:09Z</time>
      </trkpt>
      <trkpt lat="45.65527" lon="4.63258">
        <ele>481.28</ele>
        <time>2011-01-29T13:24:20Z</time>
      </trkpt>
      <trkpt lat="45.65511" lon="4.63134">
        <ele>475.03</ele>
        <time>2011-01-29T13:24:29Z</time>
      </trkpt>
      <trkpt lat="45.65455" lon="4.63029">
        <ele>469.26</ele>
        <time>2011-01-29T13:24:37Z</time>
      </trkpt>
      <trkpt lat="45.65406" lon="4.62973">
        <ele>471.66</ele>
        <time>2011-01-29T13:24:56Z</time>
      </trkpt>
      <trkpt lat="45.65367" lon="4.62862">
        <ele>458.69</ele>
        <time>2011-01-29T13:25:16Z</time>
      </trkpt>
      <trkpt lat="45.65268" lon="4.62855">
        <ele>466.86</ele>
        <time>2011-01-29T13:25:28Z</time>
      </trkpt>
      <trkpt lat="45.65171" lon="4.62864">
        <ele>468.78</ele>
        <time>2011-01-29T13:25:37Z</time>
      </trkpt>
      <trkpt lat="45.6509" lon="4.62834">
        <ele>485.6</ele>
        <time>2011-01-29T13:25:49Z</time>
      </trkpt>
      <trkpt lat="45.65015" lon="4.62908">
        <ele>499.06</ele>
        <time>2011-01-29T13:25:58Z</time>
      </trkpt>
      <trkpt lat="45.64947" lon="4.62995">
        <ele>519.73</ele>
        <time>2011-01-29T13:26:07Z</time>
      </trkpt>
      <trkpt lat="45.64854" lon="4.62988">
        <ele>536.55</ele>
        <time>2011-01-29T13:26:19Z</time>
      </trkpt>
      <trkpt lat="45.64765" lon="4.62981">
        <ele>557.7</ele>
        <time>2011-01-29T13:26:38Z</time>
      </trkpt>
      <trkpt lat="45.64673" lon="4.62947">
        <ele>575.97</ele>
        <time>2011-01-29T13:26:50Z</time>
      </trkpt>
      <trkpt lat="45.64604" lon="4.62839">
        <ele>582.22</ele>
        <time>2011-01-29T13:27:00Z</time>
      </trkpt>
      <trkpt lat="45.64513" lon="4.6278">
        <ele>591.35</ele>
        <time>2011-01-29T13:27:11Z</time>
      </trkpt>
      <trkpt lat="45.64422" lon="4.62796">
        <ele>604.81</ele>
        <time>2011-01-29T13:27:21Z</time>
      </trkpt>
      <trkpt lat="45.6434" lon="4.62743">
        <ele>619.23</ele>
        <time>2011-01-29T13:27:33Z</time>
      </trkpt>
      <trkpt lat="45.64378" lon="4.62623">
        <ele>628.36</ele>
        <time>2011-01-29T13:27:50Z</time>
      </trkpt>
      <trkpt lat="45.64403" lon="4.62497">
        <ele>637.49</ele>
        <time>2011-01-29T13:28:00Z</time>
      </trkpt>
      <trkpt lat="45.64466" lon="4.62439">
        <ele>651.43</ele>
        <time>2011-01-29T13:28:13Z</time>
      </trkpt>
      <trkpt lat="45.64458" lon="4.62301">
        <ele>663.45</ele>
        <time>2011-01-29T13:28:24Z</time>
      </trkpt>
      <trkpt lat="45.64465" lon="4.62167">
        <ele>666.33</ele>
        <time>2011-01-29T13:28:32Z</time>
      </trkpt>
      <trkpt lat="45.64444" lon="4.62029">
        <ele>660.08</ele>
        <time>2011-01-29T13:28:40Z</time>
      </trkpt>
      <trkpt lat="45.64414" lon="4.61906">
        <ele>652.39</ele>
        <time>2011-01-29T13:28:48Z</time>
      </trkpt>
      <trkpt lat="45.64474" lon="4.61825">
        <ele>649.03</ele>
        <time>2011-01-29T13:29:01Z</time>
      </trkpt>
      <trkpt lat="45.64485" lon="4.61745">
        <ele>641.34</ele>
        <time>2011-01-29T13:29:18Z</time>
      </trkpt>
      <trkpt lat="45.64402" lon="4.61673">
        <ele>634.61</ele>
        <time>2011-01-29T13:29:57Z</time>
      </trkpt>
      <trkpt lat="45.64363" lon="4.61579">
        <ele>620.67</ele>
        <time>2011-01-29T13:34:01Z</time>
      </trkpt>
      <trkpt lat="45.643" lon="4.61475">
        <ele>603.36</ele>
        <time>2011-01-29T13:35:19Z</time>
      </trkpt>
      <trkpt lat="45.6423" lon="4.61353">
        <ele>583.66</ele>
        <time>2011-01-29T13:35:53Z</time>
      </trkpt>
      <trkpt lat="45.64129" lon="4.61354">
        <ele>595.19</ele>
        <time>2011-01-29T13:36:04Z</time>
      </trkpt>
      <trkpt lat="45.64032" lon="4.61361">
        <ele>611.06</ele>
        <time>2011-01-29T13:36:18Z</time>
      </trkpt>
      <trkpt lat="45.63958" lon="4.61431">
        <ele>629.32</ele>
        <time>2011-01-29T13:36:33Z</time>
      </trkpt>
      <trkpt lat="45.63885" lon="4.61492">
        <ele>638.93</ele>
        <time>2011-01-29T13:36:46Z</time>
      </trkpt>
      <trkpt lat="45.63886" lon="4.61358">
        <ele>642.78</ele>
        <time>2011-01-29T13:38:15Z</time>
      </trkpt>
      <trkpt lat="45.63921" lon="4.61222">
        <ele>651.91</ele>
        <time>2011-01-29T13:38:24Z</time>
      </trkpt>
      <trkpt lat="45.63891" lon="4.61106">
        <ele>659.6</ele>
        <time>2011-01-29T13:38:38Z</time>
      </trkpt>
      <trkpt lat="45.63851" lon="4.61103">
        <ele>670.66</ele>
        <time>2011-01-29T13:39:18Z</time>
      </trkpt>
      <trkpt lat="45.6381" lon="4.60985">
        <ele>685.56</ele>
        <time>2011-01-29T13:39:33Z</time>
      </trkpt>
      <trkpt lat="45.6378" lon="4.60769">
        <ele>718.72</ele>
        <time>2011-01-29T14:04:42Z</time>
      </trkpt>
      <trkpt lat="45.63821" lon="4.606">
        <ele>736.99</ele>
        <time>2011-01-29T14:07:05Z</time>
      </trkpt>
      <trkpt lat="45.63947" lon="4.60534">
        <ele>762.46</ele>
        <time>2011-01-29T14:08:00Z</time>
      </trkpt>
      <trkpt lat="45.6387" lon="4.60457">
        <ele>777.84</ele>
        <time>2011-01-29T14:08:14Z</time>
      </trkpt>
      <trkpt lat="45.63775" lon="4.60443">
        <ele>778.32</ele>
        <time>2011-01-29T14:08:25Z</time>
      </trkpt>
      <trkpt lat="45.63687" lon="4.6043">
        <ele>789.86</ele>
        <time>2011-01-29T14:08:36Z</time>
      </trkpt>
      <trkpt lat="45.63599" lon="4.60495">
        <ele>793.22</ele>
        <time>2011-01-29T14:08:48Z</time>
      </trkpt>
      <trkpt lat="45.63507" lon="4.60541">
        <ele>805.24</ele>
        <time>2011-01-29T14:08:59Z</time>
      </trkpt>
      <trkpt lat="45.63447" lon="4.6064">
        <ele>815.82</ele>
        <time>2011-01-29T14:09:10Z</time>
      </trkpt>
      <trkpt lat="45.63365" lon="4.60604">
        <ele>830.72</ele>
        <time>2011-01-29T14:09:26Z</time>
      </trkpt>
      <trkpt lat="45.63309" lon="4.60493">
        <ele>843.21</ele>
        <time>2011-01-29T14:09:35Z</time>
      </trkpt>
      <trkpt lat="45.63232" lon="4.60417">
        <ele>848.98</ele>
        <time>2011-01-29T14:09:43Z</time>
      </trkpt>
      <trkpt lat="45.63149" lon="4.60322">
        <ele>851.38</ele>
        <time>2011-01-29T14:09:51Z</time>
      </trkpt>
      <trkpt lat="45.63091" lon="4.60205">
        <ele>852.35</ele>
        <time>2011-01-29T14:10:00Z</time>
      </trkpt>
      <trkpt lat="45.63021" lon="4.60147">
        <ele>846.58</ele>
        <time>2011-01-29T14:10:14Z</time>
      </trkpt>
      <trkpt lat="45.6295" lon="4.60224">
        <ele>839.85</ele>
        <time>2011-01-29T14:10:28Z</time>
      </trkpt>
      <trkpt lat="45.62902" lon="4.60337">
        <ele>835.52</ele>
        <time>2011-01-29T14:10:41Z</time>
      </trkpt>
      <trkpt lat="45.62866" lon="4.60457">
        <ele>826.39</ele>
        <time>2011-01-29T14:10:49Z</time>
      </trkpt>
      <trkpt lat="45.62794" lon="4.60531">
        <ele>812.93</ele>
        <time>2011-01-29T14:11:01Z</time>
      </trkpt>
      <trkpt lat="45.62719" lon="4.60616">
        <ele>806.2</ele>
        <time>2011-01-29T14:11:24Z</time>
      </trkpt>
      <trkpt lat="45.62708" lon="4.60762">
        <ele>800.92</ele>
        <time>2011-01-29T14:11:48Z</time>
      </trkpt>
      <trkpt lat="45.62712" lon="4.60895">
        <ele>795.63</ele>
        <time>2011-01-29T14:12:03Z</time>
      </trkpt>
      <trkpt lat="45.62609" lon="4.60876">
        <ele>824.95</ele>
        <time>2011-01-29T14:12:30Z</time>
      </trkpt>
      <trkpt lat="45.62505" lon="4.6091">
        <ele>819.66</ele>
        <time>2011-01-29T14:13:03Z</time>
      </trkpt>
      <trkpt lat="45.62444" lon="4.61003">
        <ele>787.46</ele>
        <time>2011-01-29T14:21:02Z</time>
      </trkpt>
      <trkpt lat="45.62343" lon="4.60975">
        <ele>788.42</ele>
        <time>2011-01-29T14:21:21Z</time>
      </trkpt>
      <trkpt lat="45.62255" lon="4.60879">
        <ele>802.36</ele>
        <time>2011-01-29T14:21:42Z</time>
      </trkpt>
      <trkpt lat="45.62223" lon="4.60848">
        <ele>792.26</ele>
        <time>2011-01-29T14:23:47Z</time>
      </trkpt>
      <trkpt lat="45.62144" lon="4.60887">
        <ele>753.33</ele>
        <time>2011-01-29T14:26:15Z</time>
      </trkpt>
      <trkpt lat="45.62049" lon="4.60908">
        <ele>702.38</ele>
        <time>2011-01-29T14:29:26Z</time>
      </trkpt>
      <trkpt lat="45.62105" lon="4.60887">
        <ele>734.1</ele>
        <time>2011-01-29T14:38:56Z</time>
      </trkpt>
      <trkpt lat="45.62036" lon="4.60886">
        <ele>707.67</ele>
        <time>2011-01-29T14:58:19Z</time>
      </trkpt>
      <trkpt lat="45.61927" lon="4.60863">
        <ele>721.61</ele>
        <time>2011-01-29T14:59:00Z</time>
      </trkpt>
      <trkpt lat="45.61801" lon="4.60827">
        <ele>752.37</ele>
        <time>2011-01-29T14:59:30Z</time>
      </trkpt>
      <trkpt lat="45.61705" lon="4.60764">
        <ele>751.89</ele>
        <time>2011-01-29T15:00:20Z</time>
      </trkpt>
      <trkpt lat="45.61603" lon="4.60696">
        <ele>749.49</ele>
        <time>2011-01-29T15:00:36Z</time>
      </trkpt>
      <trkpt lat="45.61505" lon="4.60612">
        <ele>757.18</ele>
        <time>2011-01-29T15:00:54Z</time>
      </trkpt>
      <trkpt lat="45.61382" lon="4.60572">
        <ele>754.77</ele>
        <time>2011-01-29T15:01:15Z</time>
      </trkpt>
      <trkpt lat="45.61296" lon="4.60478">
        <ele>752.85</ele>
        <time>2011-01-29T15:01:32Z</time>
      </trkpt>
      <trkpt lat="45.61251" lon="4.6035">
        <ele>751.41</ele>
        <time>2011-01-29T15:01:44Z</time>
      </trkpt>
      <trkpt lat="45.61193" lon="4.60238">
        <ele>754.77</ele>
        <time>2011-01-29T15:01:57Z</time>
      </trkpt>
      <trkpt lat="45.61175" lon="4.6011">
        <ele>764.87</ele>
        <time>2011-01-29T15:02:07Z</time>
      </trkpt>
      <trkpt lat="45.61111" lon="4.6003">
        <ele>772.08</ele>
        <time>2011-01-29T15:02:20Z</time>
      </trkpt>
      <trkpt lat="45.61032" lon="4.59958">
        <ele>773.04</ele>
        <time>2011-01-29T15:02:29Z</time>
      </trkpt>
      <trkpt lat="45.61018" lon="4.59832">
        <ele>766.79</ele>
        <time>2011-01-29T15:02:39Z</time>
      </trkpt>
      <trkpt lat="45.60974" lon="4.59748">
        <ele>776.4</ele>
        <time>2011-01-29T15:02:52Z</time>
      </trkpt>
      <trkpt lat="45.60928" lon="4.59626">
        <ele>781.69</ele>
        <time>2011-01-29T15:03:02Z</time>
      </trkpt>
      <trkpt lat="45.60868" lon="4.59532">
        <ele>781.21</ele>
        <time>2011-01-29T15:03:11Z</time>
      </trkpt>
      <trkpt lat="45.60872" lon="4.59388">
        <ele>781.69</ele>
        <time>2011-01-29T15:03:19Z</time>
      </trkpt>
      <trkpt lat="45.60888" lon="4.5924">
        <ele>784.09</ele>
        <time>2011-01-29T15:03:26Z</time>
      </trkpt>
      <trkpt lat="45.60884" lon="4.5911">
        <ele>787.46</ele>
        <time>2011-01-29T15:03:35Z</time>
      </trkpt>
      <trkpt lat="45.60834" lon="4.59003">
        <ele>779.77</ele>
        <time>2011-01-29T15:03:42Z</time>
      </trkpt>
      <trkpt lat="45.60736" lon="4.58993">
        <ele>775.92</ele>
        <time>2011-01-29T15:03:49Z</time>
      </trkpt>
      <trkpt lat="45.60635" lon="4.58972">
        <ele>778.32</ele>
        <time>2011-01-29T15:03:56Z</time>
      </trkpt>
      <trkpt lat="45.60542" lon="4.58933">
        <ele>775.92</ele>
        <time>2011-01-29T15:04:04Z</time>
      </trkpt>
      <trkpt lat="45.6045" lon="4.58941">
        <ele>765.35</ele>
        <time>2011-01-29T15:04:12Z</time>
      </trkpt>
      <trkpt lat="45.60358" lon="4.5896">
        <ele>750.93</ele>
        <time>2011-01-29T15:04:21Z</time>
      </trkpt>
      <trkpt lat="45.60264" lon="4.58937">
        <ele>735.07</ele>
        <time>2011-01-29T15:04:31Z</time>
      </trkpt>
      <trkpt lat="45.60174" lon="4.58908">
        <ele>724.01</ele>
        <time>2011-01-29T15:04:44Z</time>
      </trkpt>
      <trkpt lat="45.60143" lon="4.58976">
        <ele>718.24</ele>
        <time>2011-01-29T15:05:00Z</time>
      </trkpt>
      <trkpt lat="45.60131" lon="4.58942">
        <ele>718.72</ele>
        <time>2011-01-29T15:05:20Z</time>
      </trkpt>
      <trkpt lat="45.60105" lon="4.59065">
        <ele>696.13</ele>
        <time>2011-01-29T15:05:49Z</time>
      </trkpt>
      <trkpt lat="45.60089" lon="4.59211">
        <ele>675.94</ele>
        <time>2011-01-29T15:06:00Z</time>
      </trkpt>
      <trkpt lat="45.60077" lon="4.59346">
        <ele>661.52</ele>
        <time>2011-01-29T15:06:10Z</time>
      </trkpt>
      <trkpt lat="45.60074" lon="4.59482">
        <ele>641.82</ele>
        <time>2011-01-29T15:06:21Z</time>
      </trkpt>
      <trkpt lat="45.60066" lon="4.59608">
        <ele>625.96</ele>
        <time>2011-01-29T15:06:34Z</time>
      </trkpt>
      <trkpt lat="45.60066" lon="4.59742">
        <ele>607.21</ele>
        <time>2011-01-29T15:06:46Z</time>
      </trkpt>
      <trkpt lat="45.60074" lon="4.59826">
        <ele>593.27</ele>
        <time>2011-01-29T15:07:01Z</time>
      </trkpt>
      <trkpt lat="45.60003" lon="4.59729">
        <ele>595.67</ele>
        <time>2011-01-29T15:07:14Z</time>
      </trkpt>
      <trkpt lat="45.59949" lon="4.59628">
        <ele>599.04</ele>
        <time>2011-01-29T15:07:25Z</time>
      </trkpt>
      <trkpt lat="45.59872" lon="4.59556">
        <ele>595.19</ele>
        <time>2011-01-29T15:07:36Z</time>
      </trkpt>
      <trkpt lat="45.59801" lon="4.59593">
        <ele>608.65</ele>
        <time>2011-01-29T15:07:48Z</time>
      </trkpt>
      <trkpt lat="45.59721" lon="4.59644">
        <ele>616.34</ele>
        <time>2011-01-29T15:07:58Z</time>
      </trkpt>
      <trkpt lat="45.59639" lon="4.59574">
        <ele>623.07</ele>
        <time>2011-01-29T15:08:07Z</time>
      </trkpt>
      <trkpt lat="45.59578" lon="4.59484">
        <ele>617.3</ele>
        <time>2011-01-29T15:08:32Z</time>
      </trkpt>
      <trkpt lat="45.5953" lon="4.5936">
        <ele>615.86</ele>
        <time>2011-01-29T15:08:40Z</time>
      </trkpt>
      <trkpt lat="45.59467" lon="4.59259">
        <ele>616.34</ele>
        <time>2011-01-29T15:08:49Z</time>
      </trkpt>
      <trkpt lat="45.59403" lon="4.59178">
        <ele>609.61</ele>
        <time>2011-01-29T15:09:00Z</time>
      </trkpt>
      <trkpt lat="45.59348" lon="4.59074">
        <ele>604.33</ele>
        <time>2011-01-29T15:09:09Z</time>
      </trkpt>
      <trkpt lat="45.59263" lon="4.59075">
        <ele>587.02</ele>
        <time>2011-01-29T15:09:20Z</time>
      </trkpt>
      <trkpt lat="45.59177" lon="4.59065">
        <ele>562.99</ele>
        <time>2011-01-29T15:09:33Z</time>
      </trkpt>
      <trkpt lat="45.59162" lon="4.58974">
        <ele>541.84</ele>
        <time>2011-01-29T15:09:50Z</time>
      </trkpt>
      <trkpt lat="45.59093" lon="4.58977">
        <ele>522.61</ele>
        <time>2011-01-29T15:10:17Z</time>
      </trkpt>
      <trkpt lat="45.59034" lon="4.59072">
        <ele>501.46</ele>
        <time>2011-01-29T15:10:36Z</time>
      </trkpt>
      <trkpt lat="45.59031" lon="4.59092">
        <ele>500.02</ele>
        <time>2011-01-29T15:12:53Z</time>
      </trkpt>
      <trkpt lat="45.59081" lon="4.58988">
        <ele>519.25</ele>
        <time>2011-01-29T15:13:17Z</time>
      </trkpt>
      <trkpt lat="45.59165" lon="4.5896">
        <ele>539.44</ele>
        <time>2011-01-29T15:14:07Z</time>
      </trkpt>
      <trkpt lat="45.59184" lon="4.59062">
        <ele>561.55</ele>
        <time>2011-01-29T15:14:26Z</time>
      </trkpt>
      <trkpt lat="45.59272" lon="4.5908">
        <ele>583.18</ele>
        <time>2011-01-29T15:14:40Z</time>
      </trkpt>
      <trkpt lat="45.59354" lon="4.59078">
        <ele>602.4</ele>
        <time>2011-01-29T15:15:10Z</time>
      </trkpt>
      <trkpt lat="45.5941" lon="4.59175">
        <ele>607.21</ele>
        <time>2011-01-29T15:15:19Z</time>
      </trkpt>
      <trkpt lat="45.59467" lon="4.59259">
        <ele>613.46</ele>
        <time>2011-01-29T15:15:32Z</time>
      </trkpt>
      <trkpt lat="45.59529" lon="4.5935">
        <ele>614.42</ele>
        <time>2011-01-29T15:15:41Z</time>
      </trkpt>
      <trkpt lat="45.59511" lon="4.59318">
        <ele>615.86</ele>
        <time>2011-01-29T15:16:04Z</time>
      </trkpt>
      <trkpt lat="45.59433" lon="4.59223">
        <ele>612.5</ele>
        <time>2011-01-29T15:16:13Z</time>
      </trkpt>
      <trkpt lat="45.59389" lon="4.59121">
        <ele>605.77</ele>
        <time>2011-01-29T15:16:24Z</time>
      </trkpt>
      <trkpt lat="45.59313" lon="4.59056">
        <ele>599.04</ele>
        <time>2011-01-29T15:16:35Z</time>
      </trkpt>
      <trkpt lat="45.59232" lon="4.59089">
        <ele>575.97</ele>
        <time>2011-01-29T15:16:47Z</time>
      </trkpt>
      <trkpt lat="45.59152" lon="4.59059">
        <ele>551.45</ele>
        <time>2011-01-29T15:17:01Z</time>
      </trkpt>
      <trkpt lat="45.59152" lon="4.58946">
        <ele>532.23</ele>
        <time>2011-01-29T15:18:02Z</time>
      </trkpt>
      <trkpt lat="45.59064" lon="4.58995">
        <ele>513.48</ele>
        <time>2011-01-29T15:18:21Z</time>
      </trkpt>
      <trkpt lat="45.59023" lon="4.59101">
        <ele>496.66</ele>
        <time>2011-01-29T15:18:40Z</time>
      </trkpt>
      <trkpt lat="45.58921" lon="4.59092">
        <ele>477.91</ele>
        <time>2011-01-29T15:21:59Z</time>
      </trkpt>
      <trkpt lat="45.58836" lon="4.59162">
        <ele>464.93</ele>
        <time>2011-01-29T15:22:12Z</time>
      </trkpt>
      <trkpt lat="45.58764" lon="4.5928">
        <ele>450.52</ele>
        <time>2011-01-29T15:22:28Z</time>
      </trkpt>
      <trkpt lat="45.58749" lon="4.59429">
        <ele>446.67</ele>
        <time>2011-01-29T15:22:42Z</time>
      </trkpt>
      <trkpt lat="45.5875" lon="4.59583">
        <ele>433.69</ele>
        <time>2011-01-29T15:22:56Z</time>
      </trkpt>
      <trkpt lat="45.58772" lon="4.59733">
        <ele>442.34</ele>
        <time>2011-01-29T15:23:09Z</time>
      </trkpt>
      <trkpt lat="45.58698" lon="4.59797">
        <ele>441.86</ele>
        <time>2011-01-29T15:26:45Z</time>
      </trkpt>
      <trkpt lat="45.58672" lon="4.59928">
        <ele>441.38</ele>
        <time>2011-01-29T15:31:45Z</time>
      </trkpt>
      <trkpt lat="45.58677" lon="4.60069">
        <ele>435.13</ele>
        <time>2011-01-29T15:31:56Z</time>
      </trkpt>
      <trkpt lat="45.58668" lon="4.6022">
        <ele>431.29</ele>
        <time>2011-01-29T15:32:06Z</time>
      </trkpt>
      <trkpt lat="45.58615" lon="4.60346">
        <ele>426.96</ele>
        <time>2011-01-29T15:32:26Z</time>
      </trkpt>
      <trkpt lat="45.58574" lon="4.60472">
        <ele>423.6</ele>
        <time>2011-01-29T15:32:33Z</time>
      </trkpt>
      <trkpt lat="45.58498" lon="4.60567">
        <ele>419.27</ele>
        <time>2011-01-29T15:32:42Z</time>
      </trkpt>
      <trkpt lat="45.58397" lon="4.60584">
        <ele>414.47</ele>
        <time>2011-01-29T15:32:51Z</time>
      </trkpt>
      <trkpt lat="45.58289" lon="4.60601">
        <ele>410.62</ele>
        <time>2011-01-29T15:32:59Z</time>
      </trkpt>
      <trkpt lat="45.58195" lon="4.6057">
        <ele>407.26</ele>
        <time>2011-01-29T15:33:07Z</time>
      </trkpt>
      <trkpt lat="45.58104" lon="4.60583">
        <ele>402.93</ele>
        <time>2011-01-29T15:33:16Z</time>
      </trkpt>
      <trkpt lat="45.58042" lon="4.60674">
        <ele>399.57</ele>
        <time>2011-01-29T15:33:25Z</time>
      </trkpt>
      <trkpt lat="45.57943" lon="4.60709">
        <ele>395.72</ele>
        <time>2011-01-29T15:33:33Z</time>
      </trkpt>
      <trkpt lat="45.57867" lon="4.60787">
        <ele>391.87</ele>
        <time>2011-01-29T15:33:41Z</time>
      </trkpt>
      <trkpt lat="45.57809" lon="4.6089">
        <ele>389.47</ele>
        <time>2011-01-29T15:33:49Z</time>
      </trkpt>
      <trkpt lat="45.57723" lon="4.60969">
        <ele>388.03</ele>
        <time>2011-01-29T15:33:57Z</time>
      </trkpt>
      <trkpt lat="45.5765" lon="4.61046">
        <ele>385.63</ele>
        <time>2011-01-29T15:34:04Z</time>
      </trkpt>
      <trkpt lat="45.5756" lon="4.61091">
        <ele>386.59</ele>
        <time>2011-01-29T15:34:15Z</time>
      </trkpt>
      <trkpt lat="45.57556" lon="4.60966">
        <ele>396.2</ele>
        <time>2011-01-29T15:34:27Z</time>
      </trkpt>
      <trkpt lat="45.57562" lon="4.60836">
        <ele>404.85</ele>
        <time>2011-01-29T15:34:41Z</time>
      </trkpt>
      <trkpt lat="45.57569" lon="4.60706">
        <ele>412.54</ele>
        <time>2011-01-29T15:34:58Z</time>
      </trkpt>
      <trkpt lat="45.57566" lon="4.60566">
        <ele>422.16</ele>
        <time>2011-01-29T15:35:06Z</time>
      </trkpt>
      <trkpt lat="45.57558" lon="4.60423">
        <ele>432.73</ele>
        <time>2011-01-29T15:35:13Z</time>
      </trkpt>
      <trkpt lat="45.57537" lon="4.60301">
        <ele>437.54</ele>
        <time>2011-01-29T15:35:23Z</time>
      </trkpt>
      <trkpt lat="45.57504" lon="4.60198">
        <ele>439.46</ele>
        <time>2011-01-29T15:37:08Z</time>
      </trkpt>
      <trkpt lat="45.57528" lon="4.6011">
        <ele>446.19</ele>
        <time>2011-01-29T15:37:19Z</time>
      </trkpt>
      <trkpt lat="45.57449" lon="4.60039">
        <ele>441.86</ele>
        <time>2011-01-29T15:37:25Z</time>
      </trkpt>
      <trkpt lat="45.57351" lon="4.59999">
        <ele>442.34</ele>
        <time>2011-01-29T15:37:31Z</time>
      </trkpt>
      <trkpt lat="45.57271" lon="4.59948">
        <ele>443.79</ele>
        <time>2011-01-29T15:37:41Z</time>
      </trkpt>
      <trkpt lat="45.57237" lon="4.5985">
        <ele>434.17</ele>
        <time>2011-01-29T15:37:59Z</time>
      </trkpt>
      <trkpt lat="45.57229" lon="4.59718">
        <ele>424.56</ele>
        <time>2011-01-29T15:38:20Z</time>
      </trkpt>
      <trkpt lat="45.57246" lon="4.59592">
        <ele>429.37</ele>
        <time>2011-01-29T15:38:32Z</time>
      </trkpt>
      <trkpt lat="45.57253" lon="4.59457">
        <ele>432.25</ele>
        <time>2011-01-29T15:38:40Z</time>
      </trkpt>
      <trkpt lat="45.57237" lon="4.59329">
        <ele>429.37</ele>
        <time>2011-01-29T15:38:47Z</time>
      </trkpt>
      <trkpt lat="45.57254" lon="4.59244">
        <ele>417.83</ele>
        <time>2011-01-29T15:39:00Z</time>
      </trkpt>
      <trkpt lat="45.57223" lon="4.5913">
        <ele>412.54</ele>
        <time>2011-01-29T15:39:15Z</time>
      </trkpt>
      <trkpt lat="45.57151" lon="4.58993">
        <ele>410.62</ele>
        <time>2011-01-29T15:39:25Z</time>
      </trkpt>
      <trkpt lat="45.57112" lon="4.58883">
        <ele>419.27</ele>
        <time>2011-01-29T15:40:02Z</time>
      </trkpt>
      <trkpt lat="45.57117" lon="4.58759">
        <ele>428.4</ele>
        <time>2011-01-29T15:40:15Z</time>
      </trkpt>
      <trkpt lat="45.57154" lon="4.58639">
        <ele>426.96</ele>
        <time>2011-01-29T15:40:28Z</time>
      </trkpt>
      <trkpt lat="45.57133" lon="4.5855">
        <ele>437.54</ele>
        <time>2011-01-29T15:40:48Z</time>
      </trkpt>
      <trkpt lat="45.5714" lon="4.58407">
        <ele>447.63</ele>
        <time>2011-01-29T15:41:01Z</time>
      </trkpt>
      <trkpt lat="45.57116" lon="4.58256">
        <ele>433.21</ele>
        <time>2011-01-29T15:41:22Z</time>
      </trkpt>
      <trkpt lat="45.57053" lon="4.58157">
        <ele>445.23</ele>
        <time>2011-01-29T15:42:55Z</time>
      </trkpt>
      <trkpt lat="45.57007" lon="4.58096">
        <ele>448.59</ele>
        <time>2011-01-29T15:43:24Z</time>
      </trkpt>
      <trkpt lat="45.56944" lon="4.57976">
        <ele>447.63</ele>
        <time>2011-01-29T15:43:42Z</time>
      </trkpt>
      <trkpt lat="45.56872" lon="4.57876">
        <ele>448.11</ele>
        <time>2011-01-29T15:43:52Z</time>
      </trkpt>
      <trkpt lat="45.56788" lon="4.57765">
        <ele>455.32</ele>
        <time>2011-01-29T15:44:01Z</time>
      </trkpt>
      <trkpt lat="45.56719" lon="4.57646">
        <ele>466.86</ele>
        <time>2011-01-29T15:44:10Z</time>
      </trkpt>
      <trkpt lat="45.56661" lon="4.57529">
        <ele>477.91</ele>
        <time>2011-01-29T15:44:34Z</time>
      </trkpt>
      <trkpt lat="45.56582" lon="4.57441">
        <ele>473.59</ele>
        <time>2011-01-29T15:44:42Z</time>
      </trkpt>
      <trkpt lat="45.56504" lon="4.57409">
        <ele>469.74</ele>
        <time>2011-01-29T15:44:52Z</time>
      </trkpt>
      <trkpt lat="45.56431" lon="4.57464">
        <ele>485.12</ele>
        <time>2011-01-29T15:45:14Z</time>
      </trkpt>
      <trkpt lat="45.56505" lon="4.57519">
        <ele>492.81</ele>
        <time>2011-01-29T15:45:36Z</time>
      </trkpt>
      <trkpt lat="45.56573" lon="4.57588">
        <ele>473.59</ele>
        <time>2011-01-29T15:46:28Z</time>
      </trkpt>
      <trkpt lat="45.56625" lon="4.57698">
        <ele>475.03</ele>
        <time>2011-01-29T15:47:37Z</time>
      </trkpt>
      <trkpt lat="45.56617" lon="4.57833">
        <ele>476.95</ele>
        <time>2011-01-29T15:47:46Z</time>
      </trkpt>
      <trkpt lat="45.56682" lon="4.57929">
        <ele>482.72</ele>
        <time>2011-01-29T15:47:59Z</time>
      </trkpt>
      <trkpt lat="45.56714" lon="4.58052">
        <ele>496.18</ele>
        <time>2011-01-29T15:49:48Z</time>
      </trkpt>
      <trkpt lat="45.56729" lon="4.58156">
        <ele>509.16</ele>
        <time>2011-01-29T15:58:50Z</time>
      </trkpt>
      <trkpt lat="45.5664" lon="4.58183">
        <ele>531.27</ele>
        <time>2011-01-29T15:59:01Z</time>
      </trkpt>
      <trkpt lat="45.56545" lon="4.58196">
        <ele>543.76</ele>
        <time>2011-01-29T15:59:11Z</time>
      </trkpt>
      <trkpt lat="45.56456" lon="4.58219">
        <ele>557.22</ele>
        <time>2011-01-29T15:59:22Z</time>
      </trkpt>
      <trkpt lat="45.5638" lon="4.58287">
        <ele>576.45</ele>
        <time>2011-01-29T15:59:34Z</time>
      </trkpt>
      <trkpt lat="45.56317" lon="4.58379">
        <ele>592.79</ele>
        <time>2011-01-29T15:59:46Z</time>
      </trkpt>
      <trkpt lat="45.56264" lon="4.5831">
        <ele>594.71</ele>
        <time>2011-01-29T16:00:03Z</time>
      </trkpt>
      <trkpt lat="45.56223" lon="4.58187">
        <ele>598.08</ele>
        <time>2011-01-29T16:00:12Z</time>
      </trkpt>
      <trkpt lat="45.56168" lon="4.5808">
        <ele>596.64</ele>
        <time>2011-01-29T16:00:19Z</time>
      </trkpt>
      <trkpt lat="45.56119" lon="4.5796">
        <ele>598.56</ele>
        <time>2011-01-29T16:00:26Z</time>
      </trkpt>
      <trkpt lat="45.56096" lon="4.57821">
        <ele>596.64</ele>
        <time>2011-01-29T16:00:33Z</time>
      </trkpt>
      <trkpt lat="45.56085" lon="4.57676">
        <ele>596.64</ele>
        <time>2011-01-29T16:00:41Z</time>
      </trkpt>
      <trkpt lat="45.56066" lon="4.57528">
        <ele>589.43</ele>
        <time>2011-01-29T16:00:48Z</time>
      </trkpt>
      <trkpt lat="45.5606" lon="4.57396">
        <ele>585.1</ele>
        <time>2011-01-29T16:00:55Z</time>
      </trkpt>
      <trkpt lat="45.56084" lon="4.57261">
        <ele>585.1</ele>
        <time>2011-01-29T16:01:02Z</time>
      </trkpt>
      <trkpt lat="45.56136" lon="4.57161">
        <ele>588.46</ele>
        <time>2011-01-29T16:01:10Z</time>
      </trkpt>
      <trkpt lat="45.56152" lon="4.57034">
        <ele>585.1</ele>
        <time>2011-01-29T16:01:17Z</time>
      </trkpt>
      <trkpt lat="45.56136" lon="4.56902">
        <ele>580.29</ele>
        <time>2011-01-29T16:01:25Z</time>
      </trkpt>
      <trkpt lat="45.56136" lon="4.56893">
        <ele>580.77</ele>
        <time>2011-01-29T16:01:48Z</time>
      </trkpt>
      <trkpt lat="45.56182" lon="4.57003">
        <ele>575.97</ele>
        <time>2011-01-29T16:02:02Z</time>
      </trkpt>
      <trkpt lat="45.56225" lon="4.57054">
        <ele>564.43</ele>
        <time>2011-01-29T16:02:16Z</time>
      </trkpt>
      <trkpt lat="45.56271" lon="4.56939">
        <ele>551.93</ele>
        <time>2011-01-29T16:02:28Z</time>
      </trkpt>
      <trkpt lat="45.56276" lon="4.56801">
        <ele>539.44</ele>
        <time>2011-01-29T16:02:43Z</time>
      </trkpt>
      <trkpt lat="45.563" lon="4.56627">
        <ele>525.98</ele>
        <time>2011-01-29T16:03:01Z</time>
      </trkpt>
      <trkpt lat="45.5636" lon="4.56471">
        <ele>510.12</ele>
        <time>2011-01-29T16:03:28Z</time>
      </trkpt>
      <trkpt lat="45.56416" lon="4.56422">
        <ele>507.23</ele>
        <time>2011-01-29T16:04:55Z</time>
      </trkpt>
      <trkpt lat="45.56532" lon="4.56361">
        <ele>517.33</ele>
        <time>2011-01-29T16:09:15Z</time>
      </trkpt>
      <trkpt lat="45.56622" lon="4.56335">
        <ele>533.19</ele>
        <time>2011-01-29T16:09:34Z</time>
      </trkpt>
      <trkpt lat="45.56716" lon="4.56319">
        <ele>539.92</ele>
        <time>2011-01-29T16:09:42Z</time>
      </trkpt>
      <trkpt lat="45.56811" lon="4.56288">
        <ele>554.34</ele>
        <time>2011-01-29T16:09:57Z</time>
      </trkpt>
      <trkpt lat="45.56893" lon="4.56231">
        <ele>568.28</ele>
        <time>2011-01-29T16:10:08Z</time>
      </trkpt>
      <trkpt lat="45.56976" lon="4.56165">
        <ele>578.37</ele>
        <time>2011-01-29T16:10:18Z</time>
      </trkpt>
      <trkpt lat="45.57025" lon="4.56053">
        <ele>573.56</ele>
        <time>2011-01-29T16:10:28Z</time>
      </trkpt>
      <trkpt lat="45.57069" lon="4.55935">
        <ele>572.12</ele>
        <time>2011-01-29T16:10:40Z</time>
      </trkpt>
      <trkpt lat="45.57079" lon="4.55809">
        <ele>569.24</ele>
        <time>2011-01-29T16:10:51Z</time>
      </trkpt>
      <trkpt lat="45.57168" lon="4.55875">
        <ele>580.29</ele>
        <time>2011-01-29T16:11:19Z</time>
      </trkpt>
      <trkpt lat="45.57248" lon="4.55828">
        <ele>608.17</ele>
        <time>2011-01-29T16:12:13Z</time>
      </trkpt>
      <trkpt lat="45.57311" lon="4.55738">
        <ele>630.28</ele>
        <time>2011-01-29T16:12:31Z</time>
      </trkpt>
      <trkpt lat="45.57369" lon="4.55651">
        <ele>650.95</ele>
        <time>2011-01-29T16:12:46Z</time>
      </trkpt>
      <trkpt lat="45.57395" lon="4.55571">
        <ele>669.22</ele>
        <time>2011-01-29T16:13:17Z</time>
      </trkpt>
      <trkpt lat="45.57439" lon="4.55457">
        <ele>685.08</ele>
        <time>2011-01-29T16:13:34Z</time>
      </trkpt>
      <trkpt lat="45.57484" lon="4.55514">
        <ele>701.9</ele>
        <time>2011-01-29T16:15:54Z</time>
      </trkpt>
      <trkpt lat="45.57548" lon="4.55451">
        <ele>719.2</ele>
        <time>2011-01-29T16:16:11Z</time>
      </trkpt>
      <trkpt lat="45.57621" lon="4.55407">
        <ele>742.28</ele>
        <time>2011-01-29T16:16:21Z</time>
      </trkpt>
      <trkpt lat="45.57702" lon="4.55498">
        <ele>758.62</ele>
        <time>2011-01-29T16:16:30Z</time>
      </trkpt>
      <trkpt lat="45.57792" lon="4.55558">
        <ele>775.44</ele>
        <time>2011-01-29T16:16:38Z</time>
      </trkpt>
      <trkpt lat="45.57824" lon="4.55501">
        <ele>791.78</ele>
        <time>2011-01-29T16:16:49Z</time>
      </trkpt>
      <trkpt lat="45.57825" lon="4.55371">
        <ele>807.16</ele>
        <time>2011-01-29T16:16:57Z</time>
      </trkpt>
      <trkpt lat="45.57847" lon="4.55255">
        <ele>817.26</ele>
        <time>2011-01-29T16:17:08Z</time>
      </trkpt>
      <trkpt lat="45.57871" lon="4.55389">
        <ele>813.41</ele>
        <time>2011-01-29T16:18:01Z</time>
      </trkpt>
      <trkpt lat="45.57913" lon="4.55518">
        <ele>811.49</ele>
        <time>2011-01-29T16:18:10Z</time>
      </trkpt>
      <trkpt lat="45.57953" lon="4.55648">
        <ele>810.05</ele>
        <time>2011-01-29T16:18:19Z</time>
      </trkpt>
      <trkpt lat="45.58014" lon="4.55738">
        <ele>806.2</ele>
        <time>2011-01-29T16:18:28Z</time>
      </trkpt>
      <trkpt lat="45.58086" lon="4.55822">
        <ele>798.03</ele>
        <time>2011-01-29T16:18:37Z</time>
      </trkpt>
      <trkpt lat="45.5814" lon="4.55936">
        <ele>792.74</ele>
        <time>2011-01-29T16:18:44Z</time>
      </trkpt>
      <trkpt lat="45.58196" lon="4.56052">
        <ele>786.5</ele>
        <time>2011-01-29T16:18:51Z</time>
      </trkpt>
      <trkpt lat="45.58247" lon="4.56163">
        <ele>781.69</ele>
        <time>2011-01-29T16:19:00Z</time>
      </trkpt>
      <trkpt lat="45.58303" lon="4.56279">
        <ele>776.88</ele>
        <time>2011-01-29T16:19:13Z</time>
      </trkpt>
      <trkpt lat="45.58391" lon="4.56375">
        <ele>771.6</ele>
        <time>2011-01-29T16:19:25Z</time>
      </trkpt>
      <trkpt lat="45.58472" lon="4.56472">
        <ele>765.83</ele>
        <time>2011-01-29T16:19:35Z</time>
      </trkpt>
      <trkpt lat="45.58621" lon="4.56533">
        <ele>756.69</ele>
        <time>2011-01-29T16:20:04Z</time>
      </trkpt>
      <trkpt lat="45.5873" lon="4.5655">
        <ele>752.85</ele>
        <time>2011-01-29T16:20:14Z</time>
      </trkpt>
      <trkpt lat="45.58842" lon="4.5656">
        <ele>746.6</ele>
        <time>2011-01-29T16:20:24Z</time>
      </trkpt>
      <trkpt lat="45.58957" lon="4.56561">
        <ele>739.39</ele>
        <time>2011-01-29T16:20:41Z</time>
      </trkpt>
      <trkpt lat="45.59061" lon="4.5657">
        <ele>732.18</ele>
        <time>2011-01-29T16:21:23Z</time>
      </trkpt>
      <trkpt lat="45.59151" lon="4.56601">
        <ele>723.05</ele>
        <time>2011-01-29T16:21:37Z</time>
      </trkpt>
      <trkpt lat="45.59228" lon="4.56672">
        <ele>723.05</ele>
        <time>2011-01-29T16:21:47Z</time>
      </trkpt>
      <trkpt lat="45.59274" lon="4.56791">
        <ele>721.13</ele>
        <time>2011-01-29T16:21:57Z</time>
      </trkpt>
      <trkpt lat="45.59308" lon="4.5692">
        <ele>721.61</ele>
        <time>2011-01-29T16:22:09Z</time>
      </trkpt>
      <trkpt lat="45.59372" lon="4.57018">
        <ele>725.45</ele>
        <time>2011-01-29T16:22:43Z</time>
      </trkpt>
      <trkpt lat="45.59423" lon="4.57116">
        <ele>710.55</ele>
        <time>2011-01-29T16:22:57Z</time>
      </trkpt>
      <trkpt lat="45.59517" lon="4.57092">
        <ele>702.38</ele>
        <time>2011-01-29T16:23:11Z</time>
      </trkpt>
      <trkpt lat="45.59613" lon="4.57105">
        <ele>695.65</ele>
        <time>2011-01-29T16:23:18Z</time>
      </trkpt>
      <trkpt lat="45.59707" lon="4.57107">
        <ele>691.33</ele>
        <time>2011-01-29T16:23:26Z</time>
      </trkpt>
      <trkpt lat="45.598" lon="4.57122">
        <ele>688.92</ele>
        <time>2011-01-29T16:23:39Z</time>
      </trkpt>
      <trkpt lat="45.59889" lon="4.57077">
        <ele>691.81</ele>
        <time>2011-01-29T16:23:50Z</time>
      </trkpt>
      <trkpt lat="45.59965" lon="4.57049">
        <ele>695.65</ele>
        <time>2011-01-29T16:24:05Z</time>
      </trkpt>
      <trkpt lat="45.59952" lon="4.57001">
        <ele>695.17</ele>
        <time>2011-01-29T16:24:49Z</time>
      </trkpt>
      <trkpt lat="45.59994" lon="4.56886">
        <ele>695.17</ele>
        <time>2011-01-29T16:25:00Z</time>
      </trkpt>
      <trkpt lat="45.60078" lon="4.56834">
        <ele>699.5</ele>
        <time>2011-01-29T16:25:14Z</time>
      </trkpt>
      <trkpt lat="45.60129" lon="4.56748">
        <ele>701.42</ele>
        <time>2011-01-29T16:25:23Z</time>
      </trkpt>
      <trkpt lat="45.602" lon="4.56649">
        <ele>705.26</ele>
        <time>2011-01-29T16:25:32Z</time>
      </trkpt>
      <trkpt lat="45.60295" lon="4.56597">
        <ele>710.07</ele>
        <time>2011-01-29T16:25:40Z</time>
      </trkpt>
      <trkpt lat="45.60377" lon="4.56508">
        <ele>712.95</ele>
        <time>2011-01-29T16:25:47Z</time>
      </trkpt>
      <trkpt lat="45.6046" lon="4.56449">
        <ele>711.99</ele>
        <time>2011-01-29T16:25:55Z</time>
      </trkpt>
      <trkpt lat="45.60521" lon="4.56548">
        <ele>721.13</ele>
        <time>2011-01-29T16:26:05Z</time>
      </trkpt>
      <trkpt lat="45.60583" lon="4.5664">
        <ele>732.18</ele>
        <time>2011-01-29T16:26:14Z</time>
      </trkpt>
      <trkpt lat="45.60496" lon="4.56709">
        <ele>744.2</ele>
        <time>2011-01-29T16:26:24Z</time>
      </trkpt>
      <trkpt lat="45.60419" lon="4.56776">
        <ele>755.25</ele>
        <time>2011-01-29T16:26:32Z</time>
      </trkpt>
      <trkpt lat="45.6038" lon="4.56886">
        <ele>765.83</ele>
        <time>2011-01-29T16:26:43Z</time>
      </trkpt>
      <trkpt lat="45.60341" lon="4.56998">
        <ele>772.08</ele>
        <time>2011-01-29T16:26:54Z</time>
      </trkpt>
      <trkpt lat="45.60278" lon="4.57114">
        <ele>765.83</ele>
        <time>2011-01-29T16:27:03Z</time>
      </trkpt>
      <trkpt lat="45.60218" lon="4.57229">
        <ele>769.19</ele>
        <time>2011-01-29T16:27:10Z</time>
      </trkpt>
      <trkpt lat="45.60199" lon="4.57361">
        <ele>765.35</ele>
        <time>2011-01-29T16:27:17Z</time>
      </trkpt>
      <trkpt lat="45.60205" lon="4.57489">
        <ele>760.06</ele>
        <time>2011-01-29T16:27:23Z</time>
      </trkpt>
      <trkpt lat="45.60242" lon="4.57611">
        <ele>756.21</ele>
        <time>2011-01-29T16:27:30Z</time>
      </trkpt>
      <trkpt lat="45.60254" lon="4.57741">
        <ele>755.25</ele>
        <time>2011-01-29T16:27:42Z</time>
      </trkpt>
      <trkpt lat="45.6027" lon="4.57864">
        <ele>755.25</ele>
        <time>2011-01-29T16:27:58Z</time>
      </trkpt>
      <trkpt lat="45.60312" lon="4.57984">
        <ele>758.62</ele>
        <time>2011-01-29T16:28:05Z</time>
      </trkpt>
      <trkpt lat="45.60351" lon="4.58114">
        <ele>763.9</ele>
        <time>2011-01-29T16:28:12Z</time>
      </trkpt>
      <trkpt lat="45.60383" lon="4.58253">
        <ele>764.39</ele>
        <time>2011-01-29T16:28:19Z</time>
      </trkpt>
      <trkpt lat="45.60423" lon="4.58367">
        <ele>765.35</ele>
        <time>2011-01-29T16:28:31Z</time>
      </trkpt>
      <trkpt lat="45.60478" lon="4.58485">
        <ele>769.67</ele>
        <time>2011-01-29T16:28:45Z</time>
      </trkpt>
      <trkpt lat="45.60517" lon="4.5862">
        <ele>771.6</ele>
        <time>2011-01-29T16:28:53Z</time>
      </trkpt>
      <trkpt lat="45.6058" lon="4.58717">
        <ele>775.92</ele>
        <time>2011-01-29T16:29:01Z</time>
      </trkpt>
      <trkpt lat="45.60657" lon="4.58791">
        <ele>777.84</ele>
        <time>2011-01-29T16:29:10Z</time>
      </trkpt>
      <trkpt lat="45.60702" lon="4.58904">
        <ele>771.11</ele>
        <time>2011-01-29T16:29:18Z</time>
      </trkpt>
      <trkpt lat="45.60775" lon="4.58982">
        <ele>762.46</ele>
        <time>2011-01-29T16:29:26Z</time>
      </trkpt>
      <trkpt lat="45.60856" lon="4.59031">
        <ele>765.83</ele>
        <time>2011-01-29T16:29:39Z</time>
      </trkpt>
      <trkpt lat="45.60802" lon="4.58993">
        <ele>762.46</ele>
        <time>2011-01-29T16:30:47Z</time>
      </trkpt>
      <trkpt lat="45.60715" lon="4.5892">
        <ele>768.71</ele>
        <time>2011-01-29T16:30:55Z</time>
      </trkpt>
      <trkpt lat="45.60664" lon="4.58815">
        <ele>775.44</ele>
        <time>2011-01-29T16:31:02Z</time>
      </trkpt>
      <trkpt lat="45.60677" lon="4.58848">
        <ele>774.48</ele>
        <time>2011-01-29T16:31:23Z</time>
      </trkpt>
      <trkpt lat="45.60741" lon="4.58949">
        <ele>767.75</ele>
        <time>2011-01-29T16:31:30Z</time>
      </trkpt>
      <trkpt lat="45.60831" lon="4.59009">
        <ele>762.94</ele>
        <time>2011-01-29T16:31:39Z</time>
      </trkpt>
      <trkpt lat="45.60927" lon="4.59033">
        <ele>774</ele>
        <time>2011-01-29T16:40:45Z</time>
      </trkpt>
      <trkpt lat="45.61013" lon="4.59052">
        <ele>782.65</ele>
        <time>2011-01-29T16:40:52Z</time>
      </trkpt>
      <trkpt lat="45.61102" lon="4.59114">
        <ele>796.59</ele>
        <time>2011-01-29T16:41:01Z</time>
      </trkpt>
      <trkpt lat="45.61181" lon="4.59184">
        <ele>810.53</ele>
        <time>2011-01-29T16:41:10Z</time>
      </trkpt>
      <trkpt lat="45.61259" lon="4.59249">
        <ele>827.83</ele>
        <time>2011-01-29T16:41:21Z</time>
      </trkpt>
      <trkpt lat="45.61347" lon="4.59282">
        <ele>839.37</ele>
        <time>2011-01-29T16:41:30Z</time>
      </trkpt>
      <trkpt lat="45.61442" lon="4.59312">
        <ele>845.62</ele>
        <time>2011-01-29T16:41:38Z</time>
      </trkpt>
      <trkpt lat="45.61534" lon="4.59318">
        <ele>855.23</ele>
        <time>2011-01-29T16:41:44Z</time>
      </trkpt>
      <trkpt lat="45.61629" lon="4.59334">
        <ele>860.52</ele>
        <time>2011-01-29T16:41:51Z</time>
      </trkpt>
      <trkpt lat="45.61729" lon="4.59349">
        <ele>860.04</ele>
        <time>2011-01-29T16:41:57Z</time>
      </trkpt>
      <trkpt lat="45.61834" lon="4.59361">
        <ele>859.56</ele>
        <time>2011-01-29T16:42:03Z</time>
      </trkpt>
      <trkpt lat="45.6193" lon="4.59354">
        <ele>867.73</ele>
        <time>2011-01-29T16:42:10Z</time>
      </trkpt>
      <trkpt lat="45.62021" lon="4.59338">
        <ele>870.61</ele>
        <time>2011-01-29T16:42:19Z</time>
      </trkpt>
      <trkpt lat="45.621" lon="4.594">
        <ele>865.8</ele>
        <time>2011-01-29T16:42:27Z</time>
      </trkpt>
      <trkpt lat="45.62171" lon="4.59481">
        <ele>856.67</ele>
        <time>2011-01-29T16:42:49Z</time>
      </trkpt>
      <trkpt lat="45.62217" lon="4.59594">
        <ele>846.58</ele>
        <time>2011-01-29T16:43:01Z</time>
      </trkpt>
      <trkpt lat="45.62226" lon="4.59722">
        <ele>841.29</ele>
        <time>2011-01-29T16:43:10Z</time>
      </trkpt>
      <trkpt lat="45.62285" lon="4.59825">
        <ele>832.64</ele>
        <time>2011-01-29T16:43:18Z</time>
      </trkpt>
      <trkpt lat="45.62349" lon="4.59933">
        <ele>825.43</ele>
        <time>2011-01-29T16:43:25Z</time>
      </trkpt>
      <trkpt lat="45.62427" lon="4.60023">
        <ele>823.51</ele>
        <time>2011-01-29T16:43:32Z</time>
      </trkpt>
      <trkpt lat="45.62526" lon="4.60032">
        <ele>824.95</ele>
        <time>2011-01-29T16:43:40Z</time>
      </trkpt>
      <trkpt lat="45.62613" lon="4.59998">
        <ele>823.51</ele>
        <time>2011-01-29T16:43:47Z</time>
      </trkpt>
      <trkpt lat="45.62714" lon="4.59994">
        <ele>824.47</ele>
        <time>2011-01-29T16:43:54Z</time>
      </trkpt>
      <trkpt lat="45.62812" lon="4.59993">
        <ele>829.76</ele>
        <time>2011-01-29T16:44:01Z</time>
      </trkpt>
      <trkpt lat="45.6291" lon="4.59996">
        <ele>835.52</ele>
        <time>2011-01-29T16:44:09Z</time>
      </trkpt>
      <trkpt lat="45.62985" lon="4.60027">
        <ele>842.73</ele>
        <time>2011-01-29T16:44:26Z</time>
      </trkpt>
      <trkpt lat="45.63024" lon="4.59897">
        <ele>851.87</ele>
        <time>2011-01-29T16:44:38Z</time>
      </trkpt>
      <trkpt lat="45.63072" lon="4.59788">
        <ele>864.36</ele>
        <time>2011-01-29T16:44:48Z</time>
      </trkpt>
      <trkpt lat="45.63121" lon="4.59681">
        <ele>873.01</ele>
        <time>2011-01-29T16:44:57Z</time>
      </trkpt>
      <trkpt lat="45.63201" lon="4.59614">
        <ele>868.21</ele>
        <time>2011-01-29T16:45:09Z</time>
      </trkpt>
      <trkpt lat="45.63291" lon="4.59595">
        <ele>862.92</ele>
        <time>2011-01-29T16:45:17Z</time>
      </trkpt>
      <trkpt lat="45.63386" lon="4.59562">
        <ele>859.08</ele>
        <time>2011-01-29T16:45:23Z</time>
      </trkpt>
      <trkpt lat="45.63474" lon="4.59524">
        <ele>854.75</ele>
        <time>2011-01-29T16:45:29Z</time>
      </trkpt>
      <trkpt lat="45.63522" lon="4.59519">
        <ele>857.15</ele>
        <time>2011-01-29T16:45:43Z</time>
      </trkpt>
      <trkpt lat="45.63563" lon="4.59634">
        <ele>861.96</ele>
        <time>2011-01-29T16:45:54Z</time>
      </trkpt>
      <trkpt lat="45.63631" lon="4.59701">
        <ele>854.27</ele>
        <time>2011-01-29T16:46:05Z</time>
      </trkpt>
      <trkpt lat="45.6372" lon="4.5968">
        <ele>850.9</ele>
        <time>2011-01-29T16:46:13Z</time>
      </trkpt>
      <trkpt lat="45.63814" lon="4.59702">
        <ele>839.37</ele>
        <time>2011-01-29T16:46:22Z</time>
      </trkpt>
      <trkpt lat="45.63912" lon="4.59725">
        <ele>836.48</ele>
        <time>2011-01-29T16:46:31Z</time>
      </trkpt>
      <trkpt lat="45.64011" lon="4.59736">
        <ele>839.37</ele>
        <time>2011-01-29T16:46:42Z</time>
      </trkpt>
      <trkpt lat="45.64131" lon="4.59744">
        <ele>823.99</ele>
        <time>2011-01-29T16:46:57Z</time>
      </trkpt>
      <trkpt lat="45.64269" lon="4.59726">
        <ele>832.64</ele>
        <time>2011-01-29T16:47:13Z</time>
      </trkpt>
      <trkpt lat="45.64358" lon="4.59633">
        <ele>822.55</ele>
        <time>2011-01-29T16:47:27Z</time>
      </trkpt>
      <trkpt lat="45.64402" lon="4.59504">
        <ele>809.57</ele>
        <time>2011-01-29T16:48:39Z</time>
      </trkpt>
      <trkpt lat="45.64467" lon="4.59412">
        <ele>793.71</ele>
        <time>2011-01-29T16:49:06Z</time>
      </trkpt>
      <trkpt lat="45.6455" lon="4.59371">
        <ele>785.05</ele>
        <time>2011-01-29T16:50:30Z</time>
      </trkpt>
      <trkpt lat="45.64625" lon="4.5929">
        <ele>772.56</ele>
        <time>2011-01-29T16:50:42Z</time>
      </trkpt>
      <trkpt lat="45.64641" lon="4.59156">
        <ele>766.31</ele>
        <time>2011-01-29T16:50:53Z</time>
      </trkpt>
      <trkpt lat="45.64704" lon="4.59215">
        <ele>753.81</ele>
        <time>2011-01-29T16:51:11Z</time>
      </trkpt>
      <trkpt lat="45.64779" lon="4.59245">
        <ele>738.91</ele>
        <time>2011-01-29T16:51:25Z</time>
      </trkpt>
      <trkpt lat="45.6484" lon="4.59154">
        <ele>725.45</ele>
        <time>2011-01-29T16:51:38Z</time>
      </trkpt>
      <trkpt lat="45.64928" lon="4.59113">
        <ele>721.13</ele>
        <time>2011-01-29T16:51:50Z</time>
      </trkpt>
      <trkpt lat="45.64992" lon="4.59212">
        <ele>724.49</ele>
        <time>2011-01-29T16:51:59Z</time>
      </trkpt>
      <trkpt lat="45.65073" lon="4.59256">
        <ele>724.97</ele>
        <time>2011-01-29T16:52:09Z</time>
      </trkpt>
      <trkpt lat="45.65172" lon="4.59225">
        <ele>722.09</ele>
        <time>2011-01-29T16:52:20Z</time>
      </trkpt>
      <trkpt lat="45.65255" lon="4.59258">
        <ele>716.32</ele>
        <time>2011-01-29T16:52:47Z</time>
      </trkpt>
      <trkpt lat="45.65345" lon="4.59286">
        <ele>707.19</ele>
        <time>2011-01-29T16:52:58Z</time>
      </trkpt>
      <trkpt lat="45.65415" lon="4.59377">
        <ele>699.98</ele>
        <time>2011-01-29T16:53:09Z</time>
      </trkpt>
      <trkpt lat="45.65477" lon="4.59497">
        <ele>689.88</ele>
        <time>2011-01-29T16:53:21Z</time>
      </trkpt>
      <trkpt lat="45.65562" lon="4.59584">
        <ele>675.94</ele>
        <time>2011-01-29T16:53:36Z</time>
      </trkpt>
      <trkpt lat="45.6564" lon="4.59638">
        <ele>661.04</ele>
        <time>2011-01-29T16:53:54Z</time>
      </trkpt>
      <trkpt lat="45.65715" lon="4.59581">
        <ele>650.47</ele>
        <time>2011-01-29T16:54:19Z</time>
      </trkpt>
      <trkpt lat="45.65783" lon="4.59492">
        <ele>638.93</ele>
        <time>2011-01-29T16:54:30Z</time>
      </trkpt>
      <trkpt lat="45.65857" lon="4.5941">
        <ele>627.4</ele>
        <time>2011-01-29T16:54:39Z</time>
      </trkpt>
      <trkpt lat="45.65928" lon="4.59311">
        <ele>618.75</ele>
        <time>2011-01-29T16:54:50Z</time>
      </trkpt>
      <trkpt lat="45.65985" lon="4.59203">
        <ele>605.77</ele>
        <time>2011-01-29T16:54:59Z</time>
      </trkpt>
      <trkpt lat="45.66034" lon="4.59089">
        <ele>589.91</ele>
        <time>2011-01-29T16:55:11Z</time>
      </trkpt>
      <trkpt lat="45.66096" lon="4.58988">
        <ele>587.02</ele>
        <time>2011-01-29T16:55:22Z</time>
      </trkpt>
      <trkpt lat="45.66073" lon="4.58889">
        <ele>568.76</ele>
        <time>2011-01-29T16:55:37Z</time>
      </trkpt>
      <trkpt lat="45.65989" lon="4.58921">
        <ele>559.14</ele>
        <time>2011-01-29T16:56:19Z</time>
      </trkpt>
      <trkpt lat="45.66077" lon="4.58896">
        <ele>569.24</ele>
        <time>2011-01-29T16:56:40Z</time>
      </trkpt>
      <trkpt lat="45.66151" lon="4.58829">
        <ele>553.86</ele>
        <time>2011-01-29T16:57:02Z</time>
      </trkpt>
      <trkpt lat="45.66135" lon="4.58751">
        <ele>534.15</ele>
        <time>2011-01-29T16:57:22Z</time>
      </trkpt>
      <trkpt lat="45.6609" lon="4.58705">
        <ele>513</ele>
        <time>2011-01-29T16:57:45Z</time>
      </trkpt>
      <trkpt lat="45.66119" lon="4.58573">
        <ele>514.44</ele>
        <time>2011-01-29T17:01:45Z</time>
      </trkpt>
      <trkpt lat="45.66177" lon="4.58455">
        <ele>553.86</ele>
        <time>2011-01-29T17:28:58Z</time>
      </trkpt>
      <trkpt lat="45.66223" lon="4.58523">
        <ele>573.56</ele>
        <time>2011-01-29T17:29:18Z</time>
      </trkpt>
      <trkpt lat="45.66282" lon="4.58446">
        <ele>587.5</ele>
        <time>2011-01-29T17:29:35Z</time>
      </trkpt>
      <trkpt lat="45.66287" lon="4.58318">
        <ele>601.44</ele>
        <time>2011-01-29T17:29:47Z</time>
      </trkpt>
      <trkpt lat="45.66312" lon="4.58221">
        <ele>619.23</ele>
        <time>2011-01-29T17:30:02Z</time>
      </trkpt>
      <trkpt lat="45.66397" lon="4.58162">
        <ele>632.68</ele>
        <time>2011-01-29T17:30:14Z</time>
      </trkpt>
      <trkpt lat="45.66469" lon="4.58073">
        <ele>646.62</ele>
        <time>2011-01-29T17:30:25Z</time>
      </trkpt>
      <trkpt lat="45.66555" lon="4.58003">
        <ele>637.49</ele>
        <time>2011-01-29T17:30:38Z</time>
      </trkpt>
      <trkpt lat="45.6663" lon="4.57922">
        <ele>640.86</ele>
        <time>2011-01-29T17:30:49Z</time>
      </trkpt>
      <trkpt lat="45.66592" lon="4.5793">
        <ele>642.3</ele>
        <time>2011-01-29T17:31:26Z</time>
      </trkpt>
      <trkpt lat="45.66508" lon="4.58009">
        <ele>649.03</ele>
        <time>2011-01-29T17:31:33Z</time>
      </trkpt>
      <trkpt lat="45.66412" lon="4.58019">
        <ele>654.8</ele>
        <time>2011-01-29T17:31:40Z</time>
      </trkpt>
      <trkpt lat="45.66344" lon="4.57918">
        <ele>660.08</ele>
        <time>2011-01-29T17:31:47Z</time>
      </trkpt>
      <trkpt lat="45.6631" lon="4.57785">
        <ele>664.89</ele>
        <time>2011-01-29T17:31:53Z</time>
      </trkpt>
      <trkpt lat="45.66319" lon="4.57644">
        <ele>671.62</ele>
        <time>2011-01-29T17:31:59Z</time>
      </trkpt>
      <trkpt lat="45.66338" lon="4.57503">
        <ele>678.35</ele>
        <time>2011-01-29T17:32:05Z</time>
      </trkpt>
      <trkpt lat="45.66311" lon="4.57374">
        <ele>685.56</ele>
        <time>2011-01-29T17:32:11Z</time>
      </trkpt>
      <trkpt lat="45.66273" lon="4.57258">
        <ele>691.81</ele>
        <time>2011-01-29T17:32:16Z</time>
      </trkpt>
      <trkpt lat="45.66215" lon="4.57146">
        <ele>695.17</ele>
        <time>2011-01-29T17:32:22Z</time>
      </trkpt>
      <trkpt lat="45.66181" lon="4.57025">
        <ele>699.5</ele>
        <time>2011-01-29T17:32:30Z</time>
      </trkpt>
      <trkpt lat="45.6624" lon="4.56906">
        <ele>706.71</ele>
        <time>2011-01-29T17:32:37Z</time>
      </trkpt>
      <trkpt lat="45.66271" lon="4.56784">
        <ele>713.44</ele>
        <time>2011-01-29T17:32:43Z</time>
      </trkpt>
      <trkpt lat="45.66276" lon="4.56648">
        <ele>719.2</ele>
        <time>2011-01-29T17:32:50Z</time>
      </trkpt>
      <trkpt lat="45.66223" lon="4.56539">
        <ele>723.53</ele>
        <time>2011-01-29T17:32:57Z</time>
      </trkpt>
      <trkpt lat="45.66135" lon="4.56499">
        <ele>728.34</ele>
        <time>2011-01-29T17:33:05Z</time>
      </trkpt>
      <trkpt lat="45.66103" lon="4.56538">
        <ele>726.89</ele>
        <time>2011-01-29T17:43:17Z</time>
      </trkpt>
      <trkpt lat="45.66193" lon="4.5653">
        <ele>721.61</ele>
        <time>2011-01-29T17:43:25Z</time>
      </trkpt>
      <trkpt lat="45.66263" lon="4.56615">
        <ele>716.8</ele>
        <time>2011-01-29T17:43:31Z</time>
      </trkpt>
      <trkpt lat="45.66278" lon="4.56749">
        <ele>712.47</ele>
        <time>2011-01-29T17:43:37Z</time>
      </trkpt>
      <trkpt lat="45.66254" lon="4.56885">
        <ele>705.75</ele>
        <time>2011-01-29T17:43:43Z</time>
      </trkpt>
      <trkpt lat="45.66197" lon="4.56991">
        <ele>698.53</ele>
        <time>2011-01-29T17:43:49Z</time>
      </trkpt>
      <trkpt lat="45.66184" lon="4.57123">
        <ele>694.21</ele>
        <time>2011-01-29T17:43:57Z</time>
      </trkpt>
      <trkpt lat="45.66247" lon="4.57215">
        <ele>690.36</ele>
        <time>2011-01-29T17:44:04Z</time>
      </trkpt>
      <trkpt lat="45.6629" lon="4.57341">
        <ele>685.08</ele>
        <time>2011-01-29T17:44:10Z</time>
      </trkpt>
      <trkpt lat="45.66328" lon="4.57461">
        <ele>678.83</ele>
        <time>2011-01-29T17:44:15Z</time>
      </trkpt>
      <trkpt lat="45.66327" lon="4.57591">
        <ele>672.1</ele>
        <time>2011-01-29T17:44:21Z</time>
      </trkpt>
      <trkpt lat="45.66306" lon="4.57735">
        <ele>666.81</ele>
        <time>2011-01-29T17:44:27Z</time>
      </trkpt>
      <trkpt lat="45.6632" lon="4.57867">
        <ele>661.52</ele>
        <time>2011-01-29T17:44:33Z</time>
      </trkpt>
      <trkpt lat="45.66362" lon="4.57981">
        <ele>656.72</ele>
        <time>2011-01-29T17:44:39Z</time>
      </trkpt>
      <trkpt lat="45.6645" lon="4.58046">
        <ele>649.99</ele>
        <time>2011-01-29T17:44:46Z</time>
      </trkpt>
      <trkpt lat="45.6654" lon="4.58002">
        <ele>645.18</ele>
        <time>2011-01-29T17:44:52Z</time>
      </trkpt>
      <trkpt lat="45.66614" lon="4.57913">
        <ele>638.93</ele>
        <time>2011-01-29T17:44:58Z</time>
      </trkpt>
      <trkpt lat="45.66655" lon="4.57782">
        <ele>630.28</ele>
        <time>2011-01-29T17:45:05Z</time>
      </trkpt>
      <trkpt lat="45.66724" lon="4.57689">
        <ele>623.55</ele>
        <time>2011-01-29T17:45:12Z</time>
      </trkpt>
      <trkpt lat="45.66823" lon="4.57713">
        <ele>616.34</ele>
        <time>2011-01-29T17:45:19Z</time>
      </trkpt>
      <trkpt lat="45.66865" lon="4.57828">
        <ele>610.09</ele>
        <time>2011-01-29T17:45:25Z</time>
      </trkpt>
      <trkpt lat="45.66846" lon="4.57962">
        <ele>602.4</ele>
        <time>2011-01-29T17:45:30Z</time>
      </trkpt>
      <trkpt lat="45.66819" lon="4.58089">
        <ele>596.64</ele>
        <time>2011-01-29T17:45:34Z</time>
      </trkpt>
      <trkpt lat="45.66784" lon="4.58235">
        <ele>587.98</ele>
        <time>2011-01-29T17:45:39Z</time>
      </trkpt>
      <trkpt lat="45.66739" lon="4.58368">
        <ele>582.22</ele>
        <time>2011-01-29T17:45:44Z</time>
      </trkpt>
      <trkpt lat="45.66678" lon="4.58482">
        <ele>576.45</ele>
        <time>2011-01-29T17:45:50Z</time>
      </trkpt>
      <trkpt lat="45.66595" lon="4.5854">
        <ele>571.16</ele>
        <time>2011-01-29T17:45:56Z</time>
      </trkpt>
      <trkpt lat="45.66534" lon="4.58633">
        <ele>566.35</ele>
        <time>2011-01-29T17:46:02Z</time>
      </trkpt>
      <trkpt lat="45.66538" lon="4.58762">
        <ele>561.07</ele>
        <time>2011-01-29T17:46:08Z</time>
      </trkpt>
      <trkpt lat="45.66614" lon="4.58858">
        <ele>555.78</ele>
        <time>2011-01-29T17:46:15Z</time>
      </trkpt>
      <trkpt lat="45.66707" lon="4.58911">
        <ele>549.53</ele>
        <time>2011-01-29T17:46:21Z</time>
      </trkpt>
      <trkpt lat="45.66802" lon="4.58921">
        <ele>540.88</ele>
        <time>2011-01-29T17:46:27Z</time>
      </trkpt>
      <trkpt lat="45.66891" lon="4.58943">
        <ele>534.15</ele>
        <time>2011-01-29T17:46:34Z</time>
      </trkpt>
      <trkpt lat="45.66923" lon="4.59059">
        <ele>525.5</ele>
        <time>2011-01-29T17:46:41Z</time>
      </trkpt>
      <trkpt lat="45.66879" lon="4.59182">
        <ele>518.77</ele>
        <time>2011-01-29T17:46:48Z</time>
      </trkpt>
      <trkpt lat="45.6688" lon="4.59322">
        <ele>512.04</ele>
        <time>2011-01-29T17:46:55Z</time>
      </trkpt>
      <trkpt lat="45.66945" lon="4.59408">
        <ele>506.27</ele>
        <time>2011-01-29T17:47:01Z</time>
      </trkpt>
      <trkpt lat="45.67004" lon="4.59507">
        <ele>498.58</ele>
        <time>2011-01-29T17:47:07Z</time>
      </trkpt>
      <trkpt lat="45.67061" lon="4.59635">
        <ele>488.97</ele>
        <time>2011-01-29T17:47:13Z</time>
      </trkpt>
      <trkpt lat="45.6713" lon="4.59732">
        <ele>482.72</ele>
        <time>2011-01-29T17:47:18Z</time>
      </trkpt>
      <trkpt lat="45.67159" lon="4.59863">
        <ele>474.55</ele>
        <time>2011-01-29T17:47:25Z</time>
      </trkpt>
      <trkpt lat="45.67151" lon="4.59998">
        <ele>468.3</ele>
        <time>2011-01-29T17:47:31Z</time>
      </trkpt>
      <trkpt lat="45.67176" lon="4.60124">
        <ele>463.01</ele>
        <time>2011-01-29T17:47:36Z</time>
      </trkpt>
      <trkpt lat="45.67172" lon="4.60281">
        <ele>455.8</ele>
        <time>2011-01-29T17:47:42Z</time>
      </trkpt>
      <trkpt lat="45.67148" lon="4.6042">
        <ele>451</ele>
        <time>2011-01-29T17:47:47Z</time>
      </trkpt>
      <trkpt lat="45.67129" lon="4.60561">
        <ele>446.19</ele>
        <time>2011-01-29T17:47:53Z</time>
      </trkpt>
      <trkpt lat="45.67163" lon="4.60693">
        <ele>439.46</ele>
        <time>2011-01-29T17:47:59Z</time>
      </trkpt>
      <trkpt lat="45.67223" lon="4.60791">
        <ele>434.65</ele>
        <time>2011-01-29T17:48:05Z</time>
      </trkpt>
      <trkpt lat="45.67308" lon="4.60845">
        <ele>428.89</ele>
        <time>2011-01-29T17:48:11Z</time>
      </trkpt>
      <trkpt lat="45.67358" lon="4.60965">
        <ele>423.12</ele>
        <time>2011-01-29T17:48:18Z</time>
      </trkpt>
      <trkpt lat="45.67415" lon="4.61069">
        <ele>418.31</ele>
        <time>2011-01-29T17:48:25Z</time>
      </trkpt>
      <trkpt lat="45.67496" lon="4.61154">
        <ele>412.06</ele>
        <time>2011-01-29T17:48:31Z</time>
      </trkpt>
      <trkpt lat="45.67532" lon="4.61288">
        <ele>409.66</ele>
        <time>2011-01-29T17:48:38Z</time>
      </trkpt>
      <trkpt lat="45.67508" lon="4.61427">
        <ele>410.14</ele>
        <time>2011-01-29T17:48:44Z</time>
      </trkpt>
      <trkpt lat="45.67533" lon="4.61551">
        <ele>405.33</ele>
        <time>2011-01-29T17:48:50Z</time>
      </trkpt>
      <trkpt lat="45.67571" lon="4.61684">
        <ele>402.45</ele>
        <time>2011-01-29T17:48:56Z</time>
      </trkpt>
      <trkpt lat="45.67573" lon="4.61831">
        <ele>401.97</ele>
        <time>2011-01-29T17:49:02Z</time>
      </trkpt>
      <trkpt lat="45.67539" lon="4.61957">
        <ele>403.89</ele>
        <time>2011-01-29T17:49:08Z</time>
      </trkpt>
      <trkpt lat="45.675" lon="4.62077">
        <ele>403.41</ele>
        <time>2011-01-29T17:49:13Z</time>
      </trkpt>
      <trkpt lat="45.67445" lon="4.62192">
        <ele>399.08</ele>
        <time>2011-01-29T17:49:19Z</time>
      </trkpt>
      <trkpt lat="45.67392" lon="4.62307">
        <ele>393.32</ele>
        <time>2011-01-29T17:49:26Z</time>
      </trkpt>
      <trkpt lat="45.67382" lon="4.62446">
        <ele>388.99</ele>
        <time>2011-01-29T17:49:32Z</time>
      </trkpt>
      <trkpt lat="45.67404" lon="4.62575">
        <ele>385.63</ele>
        <time>2011-01-29T17:49:39Z</time>
      </trkpt>
      <trkpt lat="45.67455" lon="4.62683">
        <ele>380.82</ele>
        <time>2011-01-29T17:49:44Z</time>
      </trkpt>
      <trkpt lat="45.6751" lon="4.62789">
        <ele>375.53</ele>
        <time>2011-01-29T17:49:49Z</time>
      </trkpt>
      <trkpt lat="45.67547" lon="4.62907">
        <ele>370.73</ele>
        <time>2011-01-29T17:49:55Z</time>
      </trkpt>
      <trkpt lat="45.67522" lon="4.6303">
        <ele>363.04</ele>
        <time>2011-01-29T17:50:01Z</time>
      </trkpt>
      <trkpt lat="45.67511" lon="4.63167">
        <ele>361.11</ele>
        <time>2011-01-29T17:50:08Z</time>
      </trkpt>
      <trkpt lat="45.67571" lon="4.63251">
        <ele>355.83</ele>
        <time>2011-01-29T17:50:14Z</time>
      </trkpt>
      <trkpt lat="45.67664" lon="4.63328">
        <ele>350.06</ele>
        <time>2011-01-29T17:50:21Z</time>
      </trkpt>
      <trkpt lat="45.67714" lon="4.63442">
        <ele>344.77</ele>
        <time>2011-01-29T17:50:27Z</time>
      </trkpt>
      <trkpt lat="45.67744" lon="4.63586">
        <ele>340.44</ele>
        <time>2011-01-29T17:50:33Z</time>
      </trkpt>
      <trkpt lat="45.67801" lon="4.63702">
        <ele>334.2</ele>
        <time>2011-01-29T17:50:40Z</time>
      </trkpt>
      <trkpt lat="45.67874" lon="4.63795">
        <ele>331.79</ele>
        <time>2011-01-29T17:50:46Z</time>
      </trkpt>
      <trkpt lat="45.67903" lon="4.63927">
        <ele>331.79</ele>
        <time>2011-01-29T17:50:52Z</time>
      </trkpt>
      <trkpt lat="45.67893" lon="4.64079">
        <ele>332.27</ele>
        <time>2011-01-29T17:50:58Z</time>
      </trkpt>
      <trkpt lat="45.67885" lon="4.64219">
        <ele>335.16</ele>
        <time>2011-01-29T17:51:05Z</time>
      </trkpt>
      <trkpt lat="45.6793" lon="4.64347">
        <ele>331.79</ele>
        <time>2011-01-29T17:51:12Z</time>
      </trkpt>
      <trkpt lat="45.6798" lon="4.6446">
        <ele>328.43</ele>
        <time>2011-01-29T17:51:18Z</time>
      </trkpt>
      <trkpt lat="45.68004" lon="4.64597">
        <ele>327.47</ele>
        <time>2011-01-29T17:51:25Z</time>
      </trkpt>
      <trkpt lat="45.67972" lon="4.64738">
        <ele>324.58</ele>
        <time>2011-01-29T17:51:33Z</time>
      </trkpt>
      <trkpt lat="45.67947" lon="4.64866">
        <ele>323.62</ele>
        <time>2011-01-29T17:51:42Z</time>
      </trkpt>
      <trkpt lat="45.67944" lon="4.64996">
        <ele>318.81</ele>
        <time>2011-01-29T17:51:51Z</time>
      </trkpt>
      <trkpt lat="45.67972" lon="4.65113">
        <ele>316.41</ele>
        <time>2011-01-29T17:52:03Z</time>
      </trkpt>
      <trkpt lat="45.67959" lon="4.65244">
        <ele>316.89</ele>
        <time>2011-01-29T17:52:12Z</time>
      </trkpt>
      <trkpt lat="45.67954" lon="4.65389">
        <ele>316.41</ele>
        <time>2011-01-29T17:52:19Z</time>
      </trkpt>
      <trkpt lat="45.67952" lon="4.65534">
        <ele>313.53</ele>
        <time>2011-01-29T17:52:26Z</time>
      </trkpt>
      <trkpt lat="45.67922" lon="4.65661">
        <ele>311.6</ele>
        <time>2011-01-29T17:52:34Z</time>
      </trkpt>
      <trkpt lat="45.67909" lon="4.65783">
        <ele>308.24</ele>
        <time>2011-01-29T17:53:36Z</time>
      </trkpt>
      <trkpt lat="45.67895" lon="4.65904">
        <ele>308.24</ele>
        <time>2011-01-29T17:53:46Z</time>
      </trkpt>
      <trkpt lat="45.6794" lon="4.66012">
        <ele>311.12</ele>
        <time>2011-01-29T17:53:57Z</time>
      </trkpt>
      <trkpt lat="45.68" lon="4.66125">
        <ele>315.45</ele>
        <time>2011-01-29T17:54:04Z</time>
      </trkpt>
      <trkpt lat="45.6807" lon="4.66231">
        <ele>316.89</ele>
        <time>2011-01-29T17:54:10Z</time>
      </trkpt>
      <trkpt lat="45.68152" lon="4.66324">
        <ele>315.93</ele>
        <time>2011-01-29T17:54:16Z</time>
      </trkpt>
      <trkpt lat="45.68224" lon="4.66442">
        <ele>315.45</ele>
        <time>2011-01-29T17:54:22Z</time>
      </trkpt>
      <trkpt lat="45.68284" lon="4.66559">
        <ele>315.93</ele>
        <time>2011-01-29T17:54:27Z</time>
      </trkpt>
      <trkpt lat="45.68341" lon="4.66668">
        <ele>316.41</ele>
        <time>2011-01-29T17:54:32Z</time>
      </trkpt>
      <trkpt lat="45.68406" lon="4.66768">
        <ele>317.85</ele>
        <time>2011-01-29T17:54:37Z</time>
      </trkpt>
      <trkpt lat="45.68481" lon="4.66862">
        <ele>318.33</ele>
        <time>2011-01-29T17:54:42Z</time>
      </trkpt>
      <trkpt lat="45.68548" lon="4.66967">
        <ele>316.41</ele>
        <time>2011-01-29T17:54:47Z</time>
      </trkpt>
      <trkpt lat="45.68605" lon="4.67078">
        <ele>319.3</ele>
        <time>2011-01-29T17:54:52Z</time>
      </trkpt>
      <trkpt lat="45.68676" lon="4.67175">
        <ele>317.85</ele>
        <time>2011-01-29T17:54:57Z</time>
      </trkpt>
      <trkpt lat="45.68742" lon="4.67264">
        <ele>316.89</ele>
        <time>2011-01-29T17:55:02Z</time>
      </trkpt>
      <trkpt lat="45.68804" lon="4.67368">
        <ele>316.41</ele>
        <time>2011-01-29T17:55:08Z</time>
      </trkpt>
      <trkpt lat="45.68871" lon="4.67482">
        <ele>315.45</ele>
        <time>2011-01-29T17:55:17Z</time>
      </trkpt>
      <trkpt lat="45.68935" lon="4.67591">
        <ele>315.45</ele>
        <time>2011-01-29T17:55:22Z</time>
      </trkpt>
      <trkpt lat="45.68997" lon="4.67695">
        <ele>316.89</ele>
        <time>2011-01-29T17:55:27Z</time>
      </trkpt>
      <trkpt lat="45.69059" lon="4.67807">
        <ele>316.89</ele>
        <time>2011-01-29T17:55:33Z</time>
      </trkpt>
      <trkpt lat="45.69101" lon="4.67931">
        <ele>313.53</ele>
        <time>2011-01-29T17:55:38Z</time>
      </trkpt>
      <trkpt lat="45.69163" lon="4.68052">
        <ele>310.16</ele>
        <time>2011-01-29T17:55:44Z</time>
      </trkpt>
      <trkpt lat="45.69237" lon="4.6815">
        <ele>307.28</ele>
        <time>2011-01-29T17:55:49Z</time>
      </trkpt>
      <trkpt lat="45.69312" lon="4.6824">
        <ele>309.2</ele>
        <time>2011-01-29T17:55:55Z</time>
      </trkpt>
      <trkpt lat="45.69403" lon="4.68303">
        <ele>311.12</ele>
        <time>2011-01-29T17:56:01Z</time>
      </trkpt>
      <trkpt lat="45.69478" lon="4.68383">
        <ele>311.6</ele>
        <time>2011-01-29T17:56:07Z</time>
      </trkpt>
      <trkpt lat="45.69551" lon="4.68465">
        <ele>312.09</ele>
        <time>2011-01-29T17:56:13Z</time>
      </trkpt>
      <trkpt lat="45.69632" lon="4.68523">
        <ele>312.09</ele>
        <time>2011-01-29T17:56:19Z</time>
      </trkpt>
      <trkpt lat="45.69717" lon="4.68584">
        <ele>311.12</ele>
        <time>2011-01-29T17:56:26Z</time>
      </trkpt>
      <trkpt lat="45.69809" lon="4.68629">
        <ele>311.6</ele>
        <time>2011-01-29T17:56:33Z</time>
      </trkpt>
      <trkpt lat="45.69888" lon="4.68709">
        <ele>311.12</ele>
        <time>2011-01-29T17:56:41Z</time>
      </trkpt>
      <trkpt lat="45.69973" lon="4.68729">
        <ele>309.68</ele>
        <time>2011-01-29T17:56:49Z</time>
      </trkpt>
      <trkpt lat="45.70067" lon="4.68709">
        <ele>308.72</ele>
        <time>2011-01-29T17:56:56Z</time>
      </trkpt>
      <trkpt lat="45.70157" lon="4.68736">
        <ele>305.84</ele>
        <time>2011-01-29T17:57:03Z</time>
      </trkpt>
      <trkpt lat="45.70244" lon="4.68753">
        <ele>302.47</ele>
        <time>2011-01-29T17:57:14Z</time>
      </trkpt>
      <trkpt lat="45.70339" lon="4.68776">
        <ele>299.11</ele>
        <time>2011-01-29T17:57:19Z</time>
      </trkpt>
      <trkpt lat="45.70441" lon="4.68811">
        <ele>297.18</ele>
        <time>2011-01-29T17:57:24Z</time>
      </trkpt>
      <trkpt lat="45.70538" lon="4.68846">
        <ele>296.22</ele>
        <time>2011-01-29T17:57:29Z</time>
      </trkpt>
      <trkpt lat="45.70631" lon="4.68905">
        <ele>294.78</ele>
        <time>2011-01-29T17:57:35Z</time>
      </trkpt>
      <trkpt lat="45.70706" lon="4.68978">
        <ele>293.34</ele>
        <time>2011-01-29T17:57:40Z</time>
      </trkpt>
      <trkpt lat="45.70755" lon="4.69074">
        <ele>292.38</ele>
        <time>2011-01-29T17:57:51Z</time>
      </trkpt>
      <trkpt lat="45.70832" lon="4.69071">
        <ele>291.42</ele>
        <time>2011-01-29T17:58:03Z</time>
      </trkpt>
      <trkpt lat="45.70936" lon="4.69071">
        <ele>291.9</ele>
        <time>2011-01-29T17:58:08Z</time>
      </trkpt>
      <trkpt lat="45.71042" lon="4.69069">
        <ele>295.74</ele>
        <time>2011-01-29T17:58:13Z</time>
      </trkpt>
      <trkpt lat="45.71146" lon="4.69061">
        <ele>299.59</ele>
        <time>2011-01-29T17:58:18Z</time>
      </trkpt>
      <trkpt lat="45.71244" lon="4.69051">
        <ele>304.39</ele>
        <time>2011-01-29T17:58:23Z</time>
      </trkpt>
      <trkpt lat="45.71341" lon="4.69073">
        <ele>307.28</ele>
        <time>2011-01-29T17:58:29Z</time>
      </trkpt>
      <trkpt lat="45.71422" lon="4.69163">
        <ele>309.68</ele>
        <time>2011-01-29T17:58:35Z</time>
      </trkpt>
      <trkpt lat="45.71473" lon="4.69276">
        <ele>310.16</ele>
        <time>2011-01-29T17:58:40Z</time>
      </trkpt>
      <trkpt lat="45.71523" lon="4.69394">
        <ele>309.2</ele>
        <time>2011-01-29T17:58:45Z</time>
      </trkpt>
      <trkpt lat="45.71586" lon="4.69488">
        <ele>307.76</ele>
        <time>2011-01-29T17:58:50Z</time>
      </trkpt>
      <trkpt lat="45.71666" lon="4.6955">
        <ele>305.84</ele>
        <time>2011-01-29T17:58:55Z</time>
      </trkpt>
      <trkpt lat="45.71752" lon="4.69614">
        <ele>304.39</ele>
        <time>2011-01-29T17:59:02Z</time>
      </trkpt>
      <trkpt lat="45.71831" lon="4.69667">
        <ele>301.51</ele>
        <time>2011-01-29T17:59:13Z</time>
      </trkpt>
      <trkpt lat="45.71925" lon="4.69722">
        <ele>299.59</ele>
        <time>2011-01-29T17:59:19Z</time>
      </trkpt>
      <trkpt lat="45.72014" lon="4.6976">
        <ele>297.18</ele>
        <time>2011-01-29T17:59:24Z</time>
      </trkpt>
      <trkpt lat="45.72102" lon="4.69784">
        <ele>297.18</ele>
        <time>2011-01-29T17:59:29Z</time>
      </trkpt>
      <trkpt lat="45.72189" lon="4.69833">
        <ele>296.7</ele>
        <time>2011-01-29T17:59:37Z</time>
      </trkpt>
      <trkpt lat="45.72274" lon="4.69866">
        <ele>294.3</ele>
        <time>2011-01-29T17:59:47Z</time>
      </trkpt>
      <trkpt lat="45.72355" lon="4.69949">
        <ele>292.38</ele>
        <time>2011-01-29T17:59:53Z</time>
      </trkpt>
      <trkpt lat="45.72436" lon="4.70028">
        <ele>289.97</ele>
        <time>2011-01-29T17:59:59Z</time>
      </trkpt>
      <trkpt lat="45.72518" lon="4.70101">
        <ele>289.49</ele>
        <time>2011-01-29T18:00:05Z</time>
      </trkpt>
      <trkpt lat="45.72607" lon="4.70131">
        <ele>288.53</ele>
        <time>2011-01-29T18:00:11Z</time>
      </trkpt>
      <trkpt lat="45.72704" lon="4.70146">
        <ele>287.09</ele>
        <time>2011-01-29T18:00:17Z</time>
      </trkpt>
      <trkpt lat="45.72796" lon="4.70183">
        <ele>285.17</ele>
        <time>2011-01-29T18:00:23Z</time>
      </trkpt>
      <trkpt lat="45.72889" lon="4.70266">
        <ele>282.77</ele>
        <time>2011-01-29T18:00:30Z</time>
      </trkpt>
      <trkpt lat="45.72969" lon="4.70338">
        <ele>281.8</ele>
        <time>2011-01-29T18:00:36Z</time>
      </trkpt>
      <trkpt lat="45.73053" lon="4.70401">
        <ele>280.36</ele>
        <time>2011-01-29T18:00:45Z</time>
      </trkpt>
      <trkpt lat="45.73138" lon="4.70488">
        <ele>275.07</ele>
        <time>2011-01-29T18:00:52Z</time>
      </trkpt>
      <trkpt lat="45.73193" lon="4.70597">
        <ele>269.79</ele>
        <time>2011-01-29T18:00:57Z</time>
      </trkpt>
      <trkpt lat="45.73234" lon="4.70723">
        <ele>267.38</ele>
        <time>2011-01-29T18:01:03Z</time>
      </trkpt>
      <trkpt lat="45.73276" lon="4.70858">
        <ele>266.9</ele>
        <time>2011-01-29T18:01:10Z</time>
      </trkpt>
      <trkpt lat="45.73327" lon="4.70966">
        <ele>264.02</ele>
        <time>2011-01-29T18:01:16Z</time>
      </trkpt>
      <trkpt lat="45.73384" lon="4.71078">
        <ele>258.25</ele>
        <time>2011-01-29T18:01:22Z</time>
      </trkpt>
      <trkpt lat="45.73436" lon="4.71184">
        <ele>253.93</ele>
        <time>2011-01-29T18:01:28Z</time>
      </trkpt>
      <trkpt lat="45.73493" lon="4.713">
        <ele>248.64</ele>
        <time>2011-01-29T18:01:35Z</time>
      </trkpt>
      <trkpt lat="45.73576" lon="4.71381">
        <ele>242.87</ele>
        <time>2011-01-29T18:01:43Z</time>
      </trkpt>
      <trkpt lat="45.73665" lon="4.71408">
        <ele>239.51</ele>
        <time>2011-01-29T18:01:50Z</time>
      </trkpt>
      <trkpt lat="45.73739" lon="4.71482">
        <ele>241.43</ele>
        <time>2011-01-29T18:01:58Z</time>
      </trkpt>
      <trkpt lat="45.73789" lon="4.71601">
        <ele>243.83</ele>
        <time>2011-01-29T18:02:08Z</time>
      </trkpt>
      <trkpt lat="45.7383" lon="4.71725">
        <ele>247.68</ele>
        <time>2011-01-29T18:02:16Z</time>
      </trkpt>
      <trkpt lat="45.73855" lon="4.71848">
        <ele>252</ele>
        <time>2011-01-29T18:02:24Z</time>
      </trkpt>
      <trkpt lat="45.73938" lon="4.71893">
        <ele>258.73</ele>
        <time>2011-01-29T18:02:36Z</time>
      </trkpt>
      <trkpt lat="45.74026" lon="4.71963">
        <ele>264.5</ele>
        <time>2011-01-29T18:02:42Z</time>
      </trkpt>
      <trkpt lat="45.74106" lon="4.7202">
        <ele>270.27</ele>
        <time>2011-01-29T18:02:50Z</time>
      </trkpt>
      <trkpt lat="45.74198" lon="4.72014">
        <ele>274.11</ele>
        <time>2011-01-29T18:02:57Z</time>
      </trkpt>
      <trkpt lat="45.74292" lon="4.72002">
        <ele>277.96</ele>
        <time>2011-01-29T18:03:11Z</time>
      </trkpt>
      <trkpt lat="45.74347" lon="4.72075">
        <ele>277.96</ele>
        <time>2011-01-29T18:03:26Z</time>
      </trkpt>
      <trkpt lat="45.74365" lon="4.72169">
        <ele>277.96</ele>
        <time>2011-01-29T18:07:31Z</time>
      </trkpt>
      <trkpt lat="45.74365" lon="4.72169">
        <ele>288.05</ele>
        <time>2011-01-30T15:21:56Z</time>
      </trkpt>
      <trkpt lat="45.74357" lon="4.72183">
        <ele>267.38</ele>
        <time>2011-01-30T15:22:30Z</time>
      </trkpt>
      <trkpt lat="45.74364" lon="4.72191">
        <ele>274.59</ele>
        <time>2011-01-30T15:23:32Z</time>
      </trkpt>
    </trkseg>
  </trk>
</gpx>